Wetterdaten: Sonntag, 08.02.2015
Datum Zeit Temp. Aussen +5cm Feuchte Auss Luftdruck Regen Sonnenschein Regendauer Solar Windben
08.02.2015 00:00 3,6 C 2,2 C 97 % 1028,3 hPa 0,0 l/m 0 min 0 min 0 W/m 16,7 km/h (3 Bft)
08.02.2015 00:02 3,6 C 2,2 C 97 % 1028,3 hPa 0,0 l/m 0 min 0 min 0 W/m 18,8 km/h (3 Bft)
08.02.2015 00:05 3,6 C 2,2 C 97 % 1028,3 hPa 0,0 l/m 0 min 0 min 0 W/m 23,0 km/h (4 Bft)
08.02.2015 00:06 3,6 C 2,2 C 97 % 1028,3 hPa 0,0 l/m 0 min 0 min 0 W/m 23,0 km/h (4 Bft)
08.02.2015 00:08 3,6 C 2,2 C 97 % 1028,2 hPa 0,0 l/m 0 min 0 min 0 W/m 27,2 km/h (4 Bft)
08.02.2015 00:10 3,6 C 2,2 C 97 % 1028,2 hPa 0,0 l/m 0 min 0 min 0 W/m 20,9 km/h (4 Bft)
08.02.2015 00:12 3,6 C 2,2 C 97 % 1028,2 hPa 0,0 l/m 0 min 0 min 0 W/m 18,8 km/h (3 Bft)
08.02.2015 00:14 3,6 C 2,2 C 97 % 1028,2 hPa 0,0 l/m 0 min 0 min 0 W/m 18,8 km/h (3 Bft)
08.02.2015 00:16 3,7 C 2,2 C 97 % 1028,2 hPa 0,0 l/m 0 min 0 min 0 W/m 20,9 km/h (4 Bft)
08.02.2015 00:18 3,7 C 2,2 C 97 % 1028,3 hPa 0,0 l/m 0 min 0 min 0 W/m 16,7 km/h (3 Bft)
08.02.2015 00:20 3,7 C 2,2 C 97 % 1028,1 hPa 0,0 l/m 0 min 0 min 0 W/m 18,8 km/h (3 Bft)
08.02.2015 00:22 3,7 C 2,2 C 97 % 1028,0 hPa 0,0 l/m 0 min 0 min 0 W/m 14,6 km/h (3 Bft)
08.02.2015 00:24 3,7 C 2,2 C 97 % 1028,1 hPa 0,0 l/m 0 min 0 min 0 W/m 18,8 km/h (3 Bft)
08.02.2015 00:26 3,6 C 2,2 C 97 % 1028,1 hPa 0,0 l/m 0 min 0 min 0 W/m 16,7 km/h (3 Bft)
08.02.2015 00:28 3,6 C 2,2 C 97 % 1028,1 hPa 0,0 l/m 0 min 0 min 0 W/m 18,8 km/h (3 Bft)
08.02.2015 00:30 3,6 C 2,2 C 97 % 1028,1 hPa 0,0 l/m 0 min 0 min 0 W/m 18,8 km/h (3 Bft)
08.02.2015 00:32 3,6 C 2,2 C 97 % 1028,1 hPa 0,0 l/m 0 min 0 min 0 W/m 20,9 km/h (4 Bft)
08.02.2015 00:34 3,6 C 2,2 C 97 % 1028,1 hPa 0,0 l/m 0 min 0 min 0 W/m 27,2 km/h (4 Bft)
08.02.2015 00:36 3,6 C 2,2 C 97 % 1028,0 hPa 0,0 l/m 0 min 0 min 0 W/m 16,7 km/h (3 Bft)
08.02.2015 00:38 3,6 C 2,2 C 97 % 1027,9 hPa 0,0 l/m 0 min 0 min 0 W/m 20,9 km/h (4 Bft)
08.02.2015 00:40 3,6 C 2,2 C 97 % 1027,8 hPa 0,0 l/m 0 min 0 min 0 W/m 16,7 km/h (3 Bft)
08.02.2015 00:42 3,6 C 2,2 C 97 % 1027,8 hPa 0,0 l/m 0 min 0 min 0 W/m 18,8 km/h (3 Bft)
08.02.2015 00:44 3,6 C 2,2 C 97 % 1027,7 hPa 0,0 l/m 0 min 0 min 0 W/m 20,9 km/h (4 Bft)
08.02.2015 00:46 3,6 C 2,2 C 97 % 1027,7 hPa 0,0 l/m 0 min 0 min 0 W/m 20,9 km/h (4 Bft)
08.02.2015 00:48 3,6 C 2,2 C 97 % 1027,7 hPa 0,0 l/m 0 min 0 min 0 W/m 20,9 km/h (4 Bft)
08.02.2015 00:50 3,6 C 2,2 C 97 % 1027,7 hPa 0,0 l/m 0 min 0 min 0 W/m 18,8 km/h (3 Bft)
08.02.2015 00:52 3,6 C 2,2 C 97 % 1027,8 hPa 0,0 l/m 0 min 0 min 0 W/m 25,1 km/h (4 Bft)
08.02.2015 00:54 3,5 C 2,2 C 97 % 1027,8 hPa 0,0 l/m 0 min 0 min 0 W/m 20,9 km/h (4 Bft)
08.02.2015 00:56 3,5 C 2,2 C 97 % 1027,7 hPa 0,0 l/m 0 min 0 min 0 W/m 16,7 km/h (3 Bft)
08.02.2015 00:58 3,5 C 2,2 C 97 % 1027,7 hPa 0,0 l/m 0 min 0 min 0 W/m 18,8 km/h (3 Bft)
08.02.2015 01:00 3,5 C 2,2 C 97 % 1027,6 hPa 0,0 l/m 0 min 0 min 0 W/m 23,0 km/h (4 Bft)
08.02.2015 01:02 3,5 C 2,2 C 97 % 1027,5 hPa 0,0 l/m 0 min 0 min 0 W/m 16,7 km/h (3 Bft)
08.02.2015 01:04 3,5 C 2,2 C 97 % 1027,4 hPa 0,0 l/m 0 min 0 min 0 W/m 18,8 km/h (3 Bft)
08.02.2015 01:06 3,5 C 2,2 C 97 % 1027,3 hPa 0,0 l/m 0 min 0 min 0 W/m 20,9 km/h (4 Bft)
08.02.2015 01:08 3,5 C 2,2 C 97 % 1027,3 hPa 0,0 l/m 0 min 0 min 0 W/m 25,1 km/h (4 Bft)
08.02.2015 01:10 3,5 C 2,2 C 97 % 1027,3 hPa 0,0 l/m 0 min 0 min 0 W/m 25,1 km/h (4 Bft)
08.02.2015 01:12 3,5 C 2,2 C 97 % 1027,2 hPa 0,0 l/m 0 min 0 min 0 W/m 25,1 km/h (4 Bft)
08.02.2015 01:14 3,5 C 2,2 C 97 % 1027,2 hPa 0,0 l/m 0 min 0 min 0 W/m 18,8 km/h (3 Bft)
08.02.2015 01:16 3,5 C 2,2 C 97 % 1027,3 hPa 0,0 l/m 0 min 0 min 0 W/m 25,1 km/h (4 Bft)
08.02.2015 01:18 3,5 C 2,2 C 97 % 1027,2 hPa 0,0 l/m 0 min 0 min 0 W/m 20,9 km/h (4 Bft)
08.02.2015 01:20 3,5 C 2,2 C 97 % 1027,3 hPa 0,0 l/m 0 min 0 min 0 W/m 20,9 km/h (4 Bft)
08.02.2015 01:22 3,5 C 2,2 C 97 % 1027,3 hPa 0,0 l/m 0 min 0 min 0 W/m 16,7 km/h (3 Bft)
08.02.2015 01:24 3,5 C 2,2 C 97 % 1027,4 hPa 0,0 l/m 0 min 0 min 0 W/m 16,7 km/h (3 Bft)
08.02.2015 01:26 3,5 C 2,2 C 97 % 1027,2 hPa 0,0 l/m 0 min 0 min 0 W/m 31,4 km/h (5 Bft)
08.02.2015 01:28 3,5 C 2,2 C 97 % 1027,2 hPa 0,0 l/m 0 min 0 min 0 W/m 20,9 km/h (4 Bft)
08.02.2015 01:30 3,5 C 2,2 C 97 % 1027,2 hPa 0,0 l/m 0 min 0 min 0 W/m 20,9 km/h (4 Bft)
08.02.2015 01:32 3,5 C 2,2 C 97 % 1027,2 hPa 0,0 l/m 0 min 0 min 0 W/m 20,9 km/h (4 Bft)
08.02.2015 01:34 3,5 C 2,2 C 97 % 1027,1 hPa 0,0 l/m 0 min 0 min 0 W/m 18,8 km/h (3 Bft)
08.02.2015 01:36 3,6 C 2,2 C 97 % 1027,2 hPa 0,0 l/m 0 min 0 min 0 W/m 31,4 km/h (5 Bft)
08.02.2015 01:38 3,6 C 2,2 C 97 % 1027,3 hPa 0,0 l/m 0 min 0 min 0 W/m 27,2 km/h (4 Bft)
08.02.2015 01:40 3,6 C 2,2 C 97 % 1027,5 hPa 0,0 l/m 0 min 0 min 0 W/m 27,2 km/h (4 Bft)
08.02.2015 01:42 3,5 C 2,2 C 97 % 1027,3 hPa 0,0 l/m 0 min 0 min 0 W/m 20,9 km/h (4 Bft)
08.02.2015 01:44 3,5 C 2,2 C 97 % 1027,3 hPa 0,0 l/m 0 min 0 min 0 W/m 20,9 km/h (4 Bft)
08.02.2015 01:46 3,5 C 2,2 C 97 % 1027,2 hPa 0,0 l/m 0 min 0 min 0 W/m 25,1 km/h (4 Bft)
08.02.2015 01:48 3,5 C 2,2 C 97 % 1027,1 hPa 0,0 l/m 0 min 0 min 0 W/m 23,0 km/h (4 Bft)
08.02.2015 01:50 3,6 C 2,2 C 97 % 1027,1 hPa 0,0 l/m 0 min 0 min 0 W/m 18,8 km/h (3 Bft)
08.02.2015 01:52 3,5 C 2,2 C 97 % 1027,1 hPa 0,0 l/m 0 min 0 min 0 W/m 20,9 km/h (4 Bft)
08.02.2015 01:54 3,6 C 2,2 C 97 % 1027,1 hPa 0,0 l/m 0 min 0 min 0 W/m 25,1 km/h (4 Bft)
08.02.2015 01:56 3,5 C 2,2 C 97 % 1027,2 hPa 0,0 l/m 0 min 0 min 0 W/m 18,8 km/h (3 Bft)
08.02.2015 01:58 3,6 C 2,2 C 97 % 1027,4 hPa 0,0 l/m 0 min 0 min 0 W/m 18,8 km/h (3 Bft)
08.02.2015 02:00 3,6 C 2,2 C 97 % 1027,4 hPa 0,0 l/m 0 min 0 min 0 W/m 25,1 km/h (4 Bft)
08.02.2015 02:02 3,6 C 2,2 C 97 % 1027,4 hPa 0,0 l/m 0 min 0 min 0 W/m 20,9 km/h (4 Bft)
08.02.2015 02:04 3,5 C 2,2 C 97 % 1027,5 hPa 0,0 l/m 0 min 0 min 0 W/m 20,9 km/h (4 Bft)
08.02.2015 02:06 3,6 C 2,2 C 97 % 1027,5 hPa 0,0 l/m 0 min 0 min 0 W/m 23,0 km/h (4 Bft)
08.02.2015 02:08 3,6 C 2,2 C 97 % 1027,6 hPa 0,0 l/m 0 min 0 min 0 W/m 20,9 km/h (4 Bft)
08.02.2015 02:10 3,6 C 2,2 C 97 % 1027,6 hPa 0,0 l/m 0 min 0 min 0 W/m 25,1 km/h (4 Bft)
08.02.2015 02:12 3,6 C 2,2 C 97 % 1027,6 hPa 0,0 l/m 0 min 0 min 0 W/m 25,1 km/h (4 Bft)
08.02.2015 02:14 3,6 C 2,2 C 97 % 1027,6 hPa 0,0 l/m 0 min 0 min 0 W/m 27,2 km/h (4 Bft)
08.02.2015 02:16 3,6 C 2,2 C 97 % 1027,5 hPa 0,0 l/m 0 min 0 min 0 W/m 29,3 km/h (5 Bft)
08.02.2015 02:18 3,6 C 2,2 C 97 % 1027,5 hPa 0,0 l/m 0 min 0 min 0 W/m 29,3 km/h (5 Bft)
08.02.2015 02:20 3,6 C 2,2 C 97 % 1027,3 hPa 0,0 l/m 0 min 0 min 0 W/m 27,2 km/h (4 Bft)
08.02.2015 02:22 3,6 C 2,2 C 97 % 1027,3 hPa 0,0 l/m 0 min 0 min 0 W/m 20,9 km/h (4 Bft)
08.02.2015 02:24 3,6 C 2,2 C 97 % 1027,4 hPa 0,0 l/m 0 min 0 min 0 W/m 25,1 km/h (4 Bft)
08.02.2015 02:26 3,6 C 2,2 C 97 % 1027,6 hPa 0,0 l/m 0 min 0 min 0 W/m 20,9 km/h (4 Bft)
08.02.2015 02:28 3,6 C 2,2 C 97 % 1027,6 hPa 0,0 l/m 0 min 0 min 0 W/m 29,3 km/h (5 Bft)
08.02.2015 02:30 3,6 C 2,2 C 97 % 1027,6 hPa 0,0 l/m 0 min 0 min 0 W/m 29,3 km/h (5 Bft)
08.02.2015 02:32 3,6 C 2,2 C 97 % 1027,5 hPa 0,0 l/m 0 min 0 min 0 W/m 27,2 km/h (4 Bft)
08.02.2015 02:34 3,6 C 2,2 C 97 % 1027,4 hPa 0,0 l/m 0 min 0 min 0 W/m 25,1 km/h (4 Bft)
08.02.2015 02:36 3,6 C 2,2 C 97 % 1027,3 hPa 0,0 l/m 0 min 0 min 0 W/m 25,1 km/h (4 Bft)
08.02.2015 02:38 3,6 C 2,2 C 97 % 1027,3 hPa 0,0 l/m 0 min 0 min 0 W/m 27,2 km/h (4 Bft)
08.02.2015 02:40 3,6 C 2,2 C 97 % 1027,2 hPa 0,0 l/m 0 min 0 min 0 W/m 29,3 km/h (5 Bft)
08.02.2015 02:42 3,6 C 2,2 C 97 % 1027,3 hPa 0,0 l/m 0 min 0 min 0 W/m 20,9 km/h (4 Bft)
08.02.2015 02:44 3,6 C 2,2 C 97 % 1027,3 hPa 0,0 l/m 0 min 0 min 0 W/m 16,7 km/h (3 Bft)
08.02.2015 02:46 3,6 C 2,2 C 97 % 1027,4 hPa 0,0 l/m 0 min 0 min 0 W/m 29,3 km/h (5 Bft)
08.02.2015 02:48 3,6 C 2,2 C 97 % 1027,4 hPa 0,0 l/m 0 min 0 min 0 W/m 20,9 km/h (4 Bft)
08.02.2015 02:50 3,6 C 2,2 C 97 % 1027,3 hPa 0,0 l/m 0 min 0 min 0 W/m 23,0 km/h (4 Bft)
08.02.2015 02:52 3,6 C 2,2 C 97 % 1027,2 hPa 0,0 l/m 0 min 0 min 0 W/m 23,0 km/h (4 Bft)
08.02.2015 02:54 3,6 C 2,2 C 97 % 1027,2 hPa 0,0 l/m 0 min 0 min 0 W/m 23,0 km/h (4 Bft)
08.02.2015 02:56 3,6 C 2,2 C 97 % 1027,2 hPa 0,0 l/m 0 min 0 min 0 W/m 20,9 km/h (4 Bft)
08.02.2015 02:58 3,6 C 2,2 C 97 % 1027,3 hPa 0,0 l/m 0 min 0 min 0 W/m 18,8 km/h (3 Bft)
08.02.2015 03:00 3,7 C 2,2 C 97 % 1027,4 hPa 0,0 l/m 0 min 0 min 0 W/m 18,8 km/h (3 Bft)
08.02.2015 03:02 3,6 C 2,2 C 97 % 1027,2 hPa 0,0 l/m 0 min 0 min 0 W/m 20,9 km/h (4 Bft)
08.02.2015 03:04 3,6 C 2,2 C 97 % 1027,2 hPa 0,0 l/m 0 min 0 min 0 W/m 18,8 km/h (3 Bft)
08.02.2015 03:06 3,6 C 2,2 C 97 % 1027,2 hPa 0,0 l/m 0 min 0 min 0 W/m 16,7 km/h (3 Bft)
08.02.2015 03:08 3,6 C 2,2 C 97 % 1027,3 hPa 0,0 l/m 0 min 0 min 0 W/m 14,6 km/h (3 Bft)
08.02.2015 03:10 3,6 C 2,2 C 97 % 1027,2 hPa 0,0 l/m 0 min 0 min 0 W/m 23,0 km/h (4 Bft)
08.02.2015 03:12 3,6 C 2,2 C 97 % 1027,1 hPa 0,0 l/m 0 min 0 min 0 W/m 20,9 km/h (4 Bft)
08.02.2015 03:14 3,6 C 2,2 C 96 % 1027,1 hPa 0,0 l/m 0 min 0 min 0 W/m 18,8 km/h (3 Bft)
08.02.2015 03:16 3,6 C 2,2 C 96 % 1027,1 hPa 0,0 l/m 0 min 0 min 0 W/m 16,7 km/h (3 Bft)
08.02.2015 03:18 3,6 C 2,2 C 96 % 1027,1 hPa 0,0 l/m 0 min 0 min 0 W/m 16,7 km/h (3 Bft)
08.02.2015 03:20 3,6 C 2,2 C 96 % 1027,0 hPa 0,0 l/m 0 min 0 min 0 W/m 14,6 km/h (3 Bft)
08.02.2015 03:22 3,6 C 2,2 C 96 % 1027,0 hPa 0,0 l/m 0 min 0 min 0 W/m 18,8 km/h (3 Bft)
08.02.2015 03:24 3,6 C 2,2 C 96 % 1027,0 hPa 0,0 l/m 0 min 0 min 0 W/m 18,8 km/h (3 Bft)
08.02.2015 03:26 3,5 C 2,2 C 96 % 1027,0 hPa 0,0 l/m 0 min 0 min 0 W/m 14,6 km/h (3 Bft)
08.02.2015 03:28 3,5 C 1,7 C 96 % 1027,1 hPa 0,0 l/m 0 min 0 min 0 W/m 14,6 km/h (3 Bft)
08.02.2015 03:30 3,5 C 1,7 C 96 % 1027,1 hPa 0,0 l/m 0 min 0 min 0 W/m 18,8 km/h (3 Bft)
08.02.2015 03:32 3,5 C 2,2 C 96 % 1027,1 hPa 0,0 l/m 0 min 0 min 0 W/m 14,6 km/h (3 Bft)
08.02.2015 03:34 3,5 C 1,7 C 96 % 1027,2 hPa 0,0 l/m 0 min 0 min 0 W/m 16,7 km/h (3 Bft)
08.02.2015 03:36 3,5 C 2,2 C 96 % 1027,1 hPa 0,0 l/m 0 min 0 min 0 W/m 20,9 km/h (4 Bft)
08.02.2015 03:38 3,4 C 2,2 C 96 % 1027,1 hPa 0,0 l/m 0 min 0 min 0 W/m 14,6 km/h (3 Bft)
08.02.2015 03:40 3,4 C 2,2 C 96 % 1027,0 hPa 0,0 l/m 0 min 0 min 0 W/m 20,9 km/h (4 Bft)
08.02.2015 03:42 3,4 C 2,2 C 96 % 1026,9 hPa 0,0 l/m 0 min 0 min 0 W/m 16,7 km/h (3 Bft)
08.02.2015 03:44 3,4 C 2,2 C 96 % 1027,0 hPa 0,0 l/m 0 min 0 min 0 W/m 20,9 km/h (4 Bft)
08.02.2015 03:46 3,4 C 2,2 C 96 % 1027,1 hPa 0,0 l/m 0 min 0 min 0 W/m 14,6 km/h (3 Bft)
08.02.2015 03:48 3,4 C 2,2 C 96 % 1027,2 hPa 0,0 l/m 0 min 0 min 0 W/m 18,8 km/h (3 Bft)
08.02.2015 03:50 3,4 C 2,2 C 96 % 1027,1 hPa 0,0 l/m 0 min 0 min 0 W/m 14,6 km/h (3 Bft)
08.02.2015 03:52 3,4 C 2,2 C 96 % 1027,1 hPa 0,0 l/m 0 min 0 min 0 W/m 16,7 km/h (3 Bft)
08.02.2015 03:54 3,4 C 2,2 C 96 % 1027,0 hPa 0,0 l/m 0 min 0 min 0 W/m 20,9 km/h (4 Bft)
08.02.2015 03:56 3,4 C 2,2 C 96 % 1027,0 hPa 0,0 l/m 0 min 0 min 0 W/m 20,9 km/h (4 Bft)
08.02.2015 03:58 3,4 C 2,2 C 96 % 1026,9 hPa 0,0 l/m 0 min 0 min 0 W/m 20,9 km/h (4 Bft)
08.02.2015 04:00 3,4 C 2,2 C 96 % 1026,9 hPa 0,0 l/m 0 min 0 min 0 W/m 18,8 km/h (3 Bft)
08.02.2015 04:02 3,4 C 2,2 C 96 % 1027,0 hPa 0,0 l/m 0 min 0 min 0 W/m 20,9 km/h (4 Bft)
08.02.2015 04:04 3,4 C 2,2 C 96 % 1027,1 hPa 0,0 l/m 0 min 0 min 0 W/m 16,7 km/h (3 Bft)
08.02.2015 04:06 3,4 C 2,2 C 96 % 1027,2 hPa 0,0 l/m 0 min 0 min 0 W/m 37,7 km/h (5 Bft)
08.02.2015 04:08 3,4 C 2,2 C 96 % 1027,0 hPa 0,0 l/m 0 min 0 min 0 W/m 35,6 km/h (5 Bft)
08.02.2015 04:10 3,4 C 2,2 C 96 % 1027,0 hPa 0,0 l/m 0 min 0 min 0 W/m 23,0 km/h (4 Bft)
08.02.2015 04:12 3,4 C 2,2 C 96 % 1026,9 hPa 0,0 l/m 0 min 0 min 0 W/m 23,0 km/h (4 Bft)
08.02.2015 04:14 3,4 C 2,2 C 96 % 1026,8 hPa 0,0 l/m 0 min 0 min 0 W/m 31,4 km/h (5 Bft)
08.02.2015 04:16 3,4 C 2,2 C 96 % 1026,9 hPa 0,0 l/m 0 min 0 min 0 W/m 20,9 km/h (4 Bft)
08.02.2015 04:18 3,4 C 2,2 C 96 % 1027,1 hPa 0,0 l/m 0 min 0 min 0 W/m 25,1 km/h (4 Bft)
08.02.2015 04:20 3,4 C 2,2 C 96 % 1027,2 hPa 0,0 l/m 0 min 0 min 0 W/m 16,7 km/h (3 Bft)
08.02.2015 04:22 3,4 C 2,2 C 96 % 1027,1 hPa 0,0 l/m 0 min 0 min 0 W/m 20,9 km/h (4 Bft)
08.02.2015 04:24 3,4 C 2,2 C 96 % 1027,0 hPa 0,0 l/m 0 min 0 min 0 W/m 18,8 km/h (3 Bft)
08.02.2015 04:26 3,4 C 2,2 C 95 % 1026,9 hPa 0,0 l/m 0 min 0 min 0 W/m 23,0 km/h (4 Bft)
08.02.2015 04:28 3,4 C 2,2 C 95 % 1026,8 hPa 0,0 l/m 0 min 0 min 0 W/m 25,1 km/h (4 Bft)
08.02.2015 04:30 3,4 C 2,2 C 95 % 1026,7 hPa 0,0 l/m 0 min 0 min 0 W/m 20,9 km/h (4 Bft)
08.02.2015 04:32 3,4 C 2,2 C 95 % 1026,5 hPa 0,0 l/m 0 min 0 min 0 W/m 20,9 km/h (4 Bft)
08.02.2015 04:34 3,4 C 2,2 C 95 % 1026,4 hPa 0,0 l/m 0 min 0 min 0 W/m 20,9 km/h (4 Bft)
08.02.2015 04:36 3,4 C 2,2 C 95 % 1026,6 hPa 0,0 l/m 0 min 0 min 0 W/m 18,8 km/h (3 Bft)
08.02.2015 04:38 3,4 C 2,2 C 94 % 1026,6 hPa 0,0 l/m 0 min 0 min 0 W/m 18,8 km/h (3 Bft)
08.02.2015 04:40 3,4 C 2,2 C 94 % 1026,5 hPa 0,0 l/m 0 min 0 min 0 W/m 20,9 km/h (4 Bft)
08.02.2015 04:42 3,4 C 2,2 C 94 % 1026,6 hPa 0,0 l/m 0 min 0 min 0 W/m 18,8 km/h (3 Bft)
08.02.2015 04:44 3,4 C 2,2 C 94 % 1026,5 hPa 0,0 l/m 0 min 0 min 0 W/m 18,8 km/h (3 Bft)
08.02.2015 04:46 3,4 C 2,2 C 94 % 1026,5 hPa 0,0 l/m 0 min 0 min 0 W/m 16,7 km/h (3 Bft)
08.02.2015 04:48 3,4 C 2,2 C 94 % 1026,5 hPa 0,0 l/m 0 min 2 min 0 W/m 20,9 km/h (4 Bft)
08.02.2015 04:50 3,4 C 2,2 C 94 % 1026,7 hPa 0,0 l/m 0 min 2 min 0 W/m 16,7 km/h (3 Bft)
08.02.2015 04:52 3,4 C 2,2 C 94 % 1026,8 hPa 0,0 l/m 0 min 2 min 0 W/m 20,9 km/h (4 Bft)
08.02.2015 04:54 3,4 C 2,2 C 94 % 1026,8 hPa 0,0 l/m 0 min 0 min 0 W/m 12,6 km/h (3 Bft)
08.02.2015 04:56 3,4 C 2,2 C 94 % 1026,9 hPa 0,0 l/m 0 min 0 min 0 W/m 14,6 km/h (3 Bft)
08.02.2015 04:58 3,4 C 1,7 C 94 % 1026,9 hPa 0,0 l/m 0 min 2 min 0 W/m 16,7 km/h (3 Bft)
08.02.2015 05:00 3,4 C 1,7 C 94 % 1026,9 hPa 0,0 l/m 0 min 2 min 0 W/m 20,9 km/h (4 Bft)
08.02.2015 05:02 3,4 C 1,7 C 94 % 1026,8 hPa 0,0 l/m 0 min 0 min 0 W/m 27,2 km/h (4 Bft)
08.02.2015 05:04 3,3 C 1,7 C 93 % 1026,8 hPa 0,0 l/m 0 min 2 min 0 W/m 16,7 km/h (3 Bft)
08.02.2015 05:06 3,2 C 1,7 C 93 % 1026,8 hPa 0,0 l/m 0 min 2 min 0 W/m 23,0 km/h (4 Bft)
08.02.2015 05:08 3,2 C 1,1 C 93 % 1026,9 hPa 0,0 l/m 0 min 2 min 0 W/m 33,5 km/h (5 Bft)
08.02.2015 05:10 3,1 C 1,1 C 93 % 1026,8 hPa 0,0 l/m 0 min 2 min 0 W/m 27,2 km/h (4 Bft)
08.02.2015 05:12 3,0 C 1,1 C 93 % 1026,8 hPa 0,2 l/m 0 min 2 min 0 W/m 23,0 km/h (4 Bft)
08.02.2015 05:14 2,9 C 1,1 C 93 % 1026,7 hPa 0,0 l/m 0 min 2 min 0 W/m 16,7 km/h (3 Bft)
08.02.2015 05:16 2,9 C 0,6 C 93 % 1026,6 hPa 0,0 l/m 0 min 2 min 0 W/m 23,0 km/h (4 Bft)
08.02.2015 05:18 2,8 C 0,6 C 93 % 1026,7 hPa 0,0 l/m 0 min 2 min 0 W/m 16,7 km/h (3 Bft)
08.02.2015 05:20 2,8 C 0,6 C 93 % 1026,7 hPa 0,0 l/m 0 min 2 min 0 W/m 16,7 km/h (3 Bft)
08.02.2015 05:22 2,8 C 0,6 C 93 % 1026,8 hPa 0,0 l/m 0 min 2 min 0 W/m 16,7 km/h (3 Bft)
08.02.2015 05:24 2,7 C 0,6 C 93 % 1026,7 hPa 0,0 l/m 0 min 2 min 0 W/m 16,7 km/h (3 Bft)
08.02.2015 05:26 2,7 C 0,6 C 93 % 1026,6 hPa 0,0 l/m 0 min 2 min 0 W/m 16,7 km/h (3 Bft)
08.02.2015 05:28 2,7 C 0,6 C 93 % 1026,5 hPa 0,0 l/m 0 min 2 min 0 W/m 20,9 km/h (4 Bft)
08.02.2015 05:30 2,7 C 0,6 C 93 % 1026,5 hPa 0,0 l/m 0 min 2 min 0 W/m 16,7 km/h (3 Bft)
08.02.2015 05:32 2,6 C 0,6 C 93 % 1026,7 hPa 0,0 l/m 0 min 2 min 0 W/m 18,8 km/h (3 Bft)
08.02.2015 05:34 2,6 C 0,6 C 93 % 1026,8 hPa 0,0 l/m 0 min 2 min 0 W/m 16,7 km/h (3 Bft)
08.02.2015 05:36 2,6 C 0,6 C 93 % 1026,8 hPa 0,0 l/m 0 min 2 min 0 W/m 16,7 km/h (3 Bft)
08.02.2015 05:38 2,6 C 1,1 C 93 % 1026,9 hPa 0,0 l/m 0 min 2 min 0 W/m 18,8 km/h (3 Bft)
08.02.2015 05:40 2,6 C 1,1 C 93 % 1026,9 hPa 0,0 l/m 0 min 2 min 0 W/m 14,6 km/h (3 Bft)
08.02.2015 05:42 2,6 C 1,1 C 93 % 1026,8 hPa 0,0 l/m 0 min 2 min 0 W/m 23,0 km/h (4 Bft)
08.02.2015 05:44 2,6 C 1,1 C 93 % 1026,7 hPa 0,0 l/m 0 min 2 min 0 W/m 14,6 km/h (3 Bft)
08.02.2015 05:46 2,7 C 1,1 C 93 % 1026,7 hPa 0,0 l/m 0 min 2 min 0 W/m 18,8 km/h (3 Bft)
08.02.2015 05:48 2,7 C 1,1 C 93 % 1026,8 hPa 0,0 l/m 0 min 2 min 0 W/m 16,7 km/h (3 Bft)
08.02.2015 05:50 2,7 C 1,1 C 93 % 1026,8 hPa 0,0 l/m 0 min 0 min 0 W/m 23,0 km/h (4 Bft)
08.02.2015 05:52 2,7 C 1,1 C 93 % 1026,9 hPa 0,0 l/m 0 min 0 min 0 W/m 18,8 km/h (3 Bft)
08.02.2015 05:54 2,7 C 1,1 C 93 % 1027,0 hPa 0,0 l/m 0 min 0 min 0 W/m 18,8 km/h (3 Bft)
08.02.2015 05:56 2,7 C 1,1 C 93 % 1026,9 hPa 0,0 l/m 0 min 0 min 0 W/m 14,6 km/h (3 Bft)
08.02.2015 05:58 2,7 C 1,1 C 93 % 1026,8 hPa 0,0 l/m 0 min 0 min 0 W/m 16,7 km/h (3 Bft)
08.02.2015 06:00 2,7 C 1,1 C 93 % 1026,9 hPa 0,0 l/m 0 min 0 min 0 W/m 18,8 km/h (3 Bft)
08.02.2015 06:02 2,7 C 1,1 C 93 % 1026,9 hPa 0,0 l/m 0 min 0 min 0 W/m 14,6 km/h (3 Bft)
08.02.2015 06:05 2,7 C 1,1 C 93 % 1026,9 hPa 0,0 l/m 0 min 0 min 0 W/m 18,8 km/h (3 Bft)
08.02.2015 06:06 2,7 C 1,1 C 93 % 1026,9 hPa 0,0 l/m 0 min 0 min 0 W/m 8,4 km/h (2 Bft)
08.02.2015 06:08 2,7 C 1,1 C 93 % 1026,9 hPa 0,0 l/m 0 min 0 min 0 W/m 12,6 km/h (3 Bft)
08.02.2015 06:10 2,6 C 1,1 C 93 % 1026,9 hPa 0,0 l/m 0 min 0 min 0 W/m 16,7 km/h (3 Bft)
08.02.2015 06:12 2,6 C 1,1 C 93 % 1026,9 hPa 0,0 l/m 0 min 0 min 0 W/m 20,9 km/h (4 Bft)
08.02.2015 06:14 2,6 C 1,1 C 93 % 1026,7 hPa 0,0 l/m 0 min 0 min 0 W/m 14,6 km/h (3 Bft)
08.02.2015 06:16 2,7 C 1,1 C 93 % 1026,7 hPa 0,0 l/m 0 min 0 min 0 W/m 23,0 km/h (4 Bft)
08.02.2015 06:18 2,6 C 1,1 C 93 % 1026,7 hPa 0,0 l/m 0 min 0 min 0 W/m 18,8 km/h (3 Bft)
08.02.2015 06:20 2,6 C 1,1 C 93 % 1026,7 hPa 0,0 l/m 0 min 0 min 0 W/m 18,8 km/h (3 Bft)
08.02.2015 06:22 2,6 C 1,1 C 93 % 1026,9 hPa 0,0 l/m 0 min 0 min 0 W/m 16,7 km/h (3 Bft)
08.02.2015 06:24 2,6 C 1,1 C 93 % 1027,0 hPa 0,0 l/m 0 min 0 min 0 W/m 20,9 km/h (4 Bft)
08.02.2015 06:26 2,7 C 1,1 C 93 % 1027,1 hPa 0,0 l/m 0 min 0 min 0 W/m 18,8 km/h (3 Bft)
08.02.2015 06:28 2,7 C 1,1 C 93 % 1027,0 hPa 0,0 l/m 0 min 0 min 0 W/m 25,1 km/h (4 Bft)
08.02.2015 06:30 2,7 C 1,1 C 93 % 1026,9 hPa 0,0 l/m 0 min 0 min 0 W/m 18,8 km/h (3 Bft)
08.02.2015 06:32 2,7 C 1,1 C 93 % 1026,9 hPa 0,0 l/m 0 min 2 min 0 W/m 18,8 km/h (3 Bft)
08.02.2015 06:34 2,7 C 1,1 C 93 % 1027,0 hPa 0,0 l/m 0 min 0 min 0 W/m 18,8 km/h (3 Bft)
08.02.2015 06:36 2,7 C 1,1 C 93 % 1027,0 hPa 0,0 l/m 0 min 0 min 0 W/m 20,9 km/h (4 Bft)
08.02.2015 06:38 2,7 C 1,1 C 93 % 1027,1 hPa 0,0 l/m 0 min 2 min 0 W/m 23,0 km/h (4 Bft)
08.02.2015 06:40 2,7 C 1,1 C 93 % 1027,2 hPa 0,0 l/m 0 min 0 min 0 W/m 23,0 km/h (4 Bft)
08.02.2015 06:42 2,7 C 1,1 C 93 % 1027,2 hPa 0,0 l/m 0 min 0 min 0 W/m 18,8 km/h (3 Bft)
08.02.2015 06:44 2,7 C 1,1 C 93 % 1027,2 hPa 0,0 l/m 0 min 0 min 0 W/m 20,9 km/h (4 Bft)
08.02.2015 06:46 2,7 C 1,1 C 93 % 1027,3 hPa 0,0 l/m 0 min 0 min 0 W/m 29,3 km/h (5 Bft)
08.02.2015 06:48 2,7 C 1,1 C 93 % 1027,4 hPa 0,0 l/m 0 min 0 min 0 W/m 23,0 km/h (4 Bft)
08.02.2015 06:50 2,7 C 1,1 C 92 % 1027,6 hPa 0,0 l/m 0 min 0 min 0 W/m 31,4 km/h (5 Bft)
08.02.2015 06:52 2,7 C 1,1 C 92 % 1027,4 hPa 0,0 l/m 0 min 0 min 0 W/m 23,0 km/h (4 Bft)
08.02.2015 06:54 2,8 C 1,1 C 92 % 1027,5 hPa 0,0 l/m 0 min 0 min 0 W/m 23,0 km/h (4 Bft)
08.02.2015 06:56 2,8 C 1,1 C 92 % 1027,5 hPa 0,0 l/m 0 min 0 min 0 W/m 25,1 km/h (4 Bft)
08.02.2015 06:58 2,8 C 1,1 C 92 % 1027,6 hPa 0,0 l/m 0 min 0 min 0 W/m 29,3 km/h (5 Bft)
08.02.2015 07:00 2,8 C 1,1 C 92 % 1027,6 hPa 0,0 l/m 0 min 0 min 0 W/m 23,0 km/h (4 Bft)
08.02.2015 07:02 2,9 C 1,1 C 92 % 1027,4 hPa 0,0 l/m 0 min 0 min 0 W/m 25,1 km/h (4 Bft)
08.02.2015 07:04 2,9 C 1,1 C 91 % 1027,5 hPa 0,0 l/m 0 min 0 min 0 W/m 25,1 km/h (4 Bft)
08.02.2015 07:06 2,9 C 1,1 C 91 % 1027,6 hPa 0,0 l/m 0 min 0 min 0 W/m 18,8 km/h (3 Bft)
08.02.2015 07:08 2,9 C 1,1 C 91 % 1027,7 hPa 0,0 l/m 0 min 0 min 0 W/m 20,9 km/h (4 Bft)
08.02.2015 07:10 2,9 C 1,1 C 91 % 1027,7 hPa 0,0 l/m 0 min 0 min 0 W/m 23,0 km/h (4 Bft)
08.02.2015 07:12 2,9 C 1,1 C 91 % 1027,7 hPa 0,0 l/m 0 min 0 min 0 W/m 20,9 km/h (4 Bft)
08.02.2015 07:14 2,9 C 1,1 C 91 % 1027,7 hPa 0,0 l/m 0 min 0 min 0 W/m 18,8 km/h (3 Bft)
08.02.2015 07:16 2,9 C 1,1 C 91 % 1027,7 hPa 0,0 l/m 0 min 0 min 0 W/m 16,7 km/h (3 Bft)
08.02.2015 07:18 2,9 C 1,1 C 90 % 1027,7 hPa 0,0 l/m 0 min 0 min 0 W/m 18,8 km/h (3 Bft)
08.02.2015 07:20 2,9 C 1,1 C 90 % 1027,8 hPa 0,0 l/m 0 min 0 min 0 W/m 20,9 km/h (4 Bft)
08.02.2015 07:22 2,9 C 1,1 C 90 % 1027,8 hPa 0,0 l/m 0 min 0 min 0 W/m 23,0 km/h (4 Bft)
08.02.2015 07:24 2,9 C 1,1 C 90 % 1027,9 hPa 0,0 l/m 0 min 0 min 0 W/m 14,6 km/h (3 Bft)
08.02.2015 07:26 2,9 C 1,1 C 90 % 1027,9 hPa 0,0 l/m 0 min 0 min 0 W/m 18,8 km/h (3 Bft)
08.02.2015 07:28 2,9 C 1,1 C 90 % 1027,8 hPa 0,0 l/m 0 min 0 min 0 W/m 16,7 km/h (3 Bft)
08.02.2015 07:30 3,0 C 1,1 C 90 % 1027,8 hPa 0,0 l/m 0 min 0 min 0 W/m 31,4 km/h (5 Bft)
08.02.2015 07:32 3,0 C 1,1 C 90 % 1027,9 hPa 0,0 l/m 0 min 0 min 0 W/m 27,2 km/h (4 Bft)
08.02.2015 07:34 3,0 C 1,1 C 89 % 1028,0 hPa 0,0 l/m 0 min 0 min 0 W/m 23,0 km/h (4 Bft)
08.02.2015 07:36 3,0 C 1,1 C 89 % 1028,0 hPa 0,0 l/m 0 min 0 min 0 W/m 25,1 km/h (4 Bft)
08.02.2015 07:38 3,1 C 1,1 C 89 % 1028,0 hPa 0,0 l/m 0 min 0 min 0 W/m 27,2 km/h (4 Bft)
08.02.2015 07:40 3,1 C 1,1 C 89 % 1027,9 hPa 0,0 l/m 0 min 0 min 0 W/m 18,8 km/h (3 Bft)
08.02.2015 07:42 3,1 C 1,1 C 89 % 1027,8 hPa 0,0 l/m 0 min 0 min 0 W/m 23,0 km/h (4 Bft)
08.02.2015 07:44 3,1 C 1,1 C 89 % 1027,9 hPa 0,0 l/m 0 min 0 min 0 W/m 27,2 km/h (4 Bft)
08.02.2015 07:46 3,1 C 1,1 C 88 % 1028,0 hPa 0,0 l/m 0 min 0 min 0 W/m 27,2 km/h (4 Bft)
08.02.2015 07:48 3,1 C 1,1 C 88 % 1028,1 hPa 0,0 l/m 0 min 0 min 0 W/m 25,1 km/h (4 Bft)
08.02.2015 07:50 3,1 C 1,1 C 88 % 1028,1 hPa 0,0 l/m 0 min 0 min 0 W/m 23,0 km/h (4 Bft)
08.02.2015 07:52 3,1 C 1,1 C 88 % 1028,1 hPa 0,0 l/m 0 min 0 min 0 W/m 25,1 km/h (4 Bft)
08.02.2015 07:54 3,2 C 1,1 C 88 % 1028,1 hPa 0,0 l/m 0 min 0 min 0 W/m 23,0 km/h (4 Bft)
08.02.2015 07:56 3,2 C 1,1 C 88 % 1028,2 hPa 0,0 l/m 0 min 0 min 0 W/m 35,6 km/h (5 Bft)
08.02.2015 07:58 3,2 C 1,1 C 88 % 1028,2 hPa 0,0 l/m 0 min 0 min 0 W/m 29,3 km/h (5 Bft)
08.02.2015 08:00 3,2 C 1,1 C 87 % 1028,3 hPa 0,0 l/m 0 min 0 min 0 W/m 20,9 km/h (4 Bft)
08.02.2015 08:02 3,2 C 1,7 C 87 % 1028,2 hPa 0,0 l/m 0 min 0 min 0 W/m 18,8 km/h (3 Bft)
08.02.2015 08:04 3,2 C 1,7 C 87 % 1028,3 hPa 0,0 l/m 0 min 0 min 0 W/m 25,1 km/h (4 Bft)
08.02.2015 08:06 3,2 C 1,1 C 87 % 1028,2 hPa 0,0 l/m 0 min 0 min 0 W/m 23,0 km/h (4 Bft)
08.02.2015 08:08 3,2 C 1,1 C 87 % 1028,1 hPa 0,0 l/m 0 min 0 min 0 W/m 20,9 km/h (4 Bft)
08.02.2015 08:10 3,2 C 1,1 C 87 % 1028,1 hPa 0,0 l/m 0 min 0 min 1 W/m 23,0 km/h (4 Bft)
08.02.2015 08:12 3,3 C 1,1 C 87 % 1028,2 hPa 0,0 l/m 0 min 0 min 5 W/m 23,0 km/h (4 Bft)
08.02.2015 08:14 3,2 C 1,1 C 86 % 1028,2 hPa 0,0 l/m 0 min 0 min 6 W/m 18,8 km/h (3 Bft)
08.02.2015 08:16 3,3 C 1,1 C 86 % 1028,2 hPa 0,0 l/m 0 min 0 min 7 W/m 20,9 km/h (4 Bft)
08.02.2015 08:18 3,3 C 1,1 C 86 % 1028,3 hPa 0,0 l/m 0 min 0 min 7 W/m 12,6 km/h (3 Bft)
08.02.2015 08:20 3,3 C 1,1 C 86 % 1028,2 hPa 0,0 l/m 0 min 0 min 7 W/m 16,7 km/h (3 Bft)
08.02.2015 08:22 3,3 C 1,1 C 86 % 1028,3 hPa 0,0 l/m 0 min 0 min 7 W/m 16,7 km/h (3 Bft)
08.02.2015 08:24 3,3 C 1,7 C 86 % 1028,4 hPa 0,0 l/m 0 min 0 min 7 W/m 20,9 km/h (4 Bft)
08.02.2015 08:26 3,3 C 1,1 C 86 % 1028,5 hPa 0,0 l/m 0 min 0 min 8 W/m 18,8 km/h (3 Bft)
08.02.2015 08:28 3,3 C 1,1 C 86 % 1028,4 hPa 0,0 l/m 0 min 0 min 10 W/m 16,7 km/h (3 Bft)
08.02.2015 08:30 3,3 C 1,1 C 86 % 1028,5 hPa 0,0 l/m 0 min 0 min 11 W/m 20,9 km/h (4 Bft)
08.02.2015 08:32 3,3 C 1,1 C 86 % 1028,4 hPa 0,0 l/m 0 min 0 min 10 W/m 20,9 km/h (4 Bft)
08.02.2015 08:34 3,3 C 1,7 C 86 % 1028,5 hPa 0,0 l/m 0 min 0 min 7 W/m 23,0 km/h (4 Bft)
08.02.2015 08:36 3,3 C 1,7 C 86 % 1028,5 hPa 0,0 l/m 0 min 0 min 10 W/m 27,2 km/h (4 Bft)
08.02.2015 08:38 3,3 C 1,7 C 86 % 1028,5 hPa 0,0 l/m 0 min 0 min 11 W/m 31,4 km/h (5 Bft)
08.02.2015 08:40 3,3 C 1,7 C 86 % 1028,4 hPa 0,0 l/m 0 min 0 min 12 W/m 25,1 km/h (4 Bft)
08.02.2015 08:42 3,3 C 1,1 C 86 % 1028,5 hPa 0,0 l/m 0 min 0 min 14 W/m 25,1 km/h (4 Bft)
08.02.2015 08:44 3,3 C 1,1 C 86 % 1028,5 hPa 0,0 l/m 0 min 0 min 15 W/m 23,0 km/h (4 Bft)
08.02.2015 08:46 3,3 C 1,7 C 86 % 1028,6 hPa 0,0 l/m 0 min 0 min 19 W/m 16,7 km/h (3 Bft)
08.02.2015 08:48 3,3 C 1,7 C 86 % 1028,5 hPa 0,0 l/m 0 min 0 min 26 W/m 20,9 km/h (4 Bft)
08.02.2015 08:50 3,3 C 1,7 C 85 % 1028,4 hPa 0,0 l/m 0 min 0 min 30 W/m 12,6 km/h (3 Bft)
08.02.2015 08:52 3,3 C 1,7 C 85 % 1028,5 hPa 0,0 l/m 0 min 0 min 29 W/m 25,1 km/h (4 Bft)
08.02.2015 08:54 3,3 C 1,7 C 85 % 1028,5 hPa 0,0 l/m 0 min 0 min 31 W/m 25,1 km/h (4 Bft)
08.02.2015 08:56 3,3 C 1,7 C 85 % 1028,5 hPa 0,0 l/m 0 min 0 min 38 W/m 31,4 km/h (5 Bft)
08.02.2015 08:58 3,3 C 1,7 C 85 % 1028,6 hPa 0,0 l/m 0 min 0 min 47 W/m 27,2 km/h (4 Bft)
08.02.2015 09:00 3,3 C 1,7 C 85 % 1028,5 hPa 0,0 l/m 0 min 0 min 55 W/m 25,1 km/h (4 Bft)
08.02.2015 09:02 3,3 C 1,7 C 85 % 1028,5 hPa 0,0 l/m 0 min 0 min 55 W/m 31,4 km/h (5 Bft)
08.02.2015 09:04 3,4 C 1,7 C 85 % 1028,5 hPa 0,0 l/m 0 min 0 min 52 W/m 25,1 km/h (4 Bft)
08.02.2015 09:06 3,4 C 1,7 C 85 % 1028,5 hPa 0,0 l/m 0 min 0 min 46 W/m 29,3 km/h (5 Bft)
08.02.2015 09:08 3,4 C 1,7 C 85 % 1028,5 hPa 0,0 l/m 0 min 0 min 43 W/m 31,4 km/h (5 Bft)
08.02.2015 09:10 3,4 C 1,7 C 85 % 1028,7 hPa 0,0 l/m 0 min 0 min 40 W/m 31,4 km/h (5 Bft)
08.02.2015 09:12 3,4 C 1,7 C 84 % 1028,8 hPa 0,0 l/m 0 min 0 min 34 W/m 23,0 km/h (4 Bft)
08.02.2015 09:14 3,4 C 1,7 C 84 % 1028,7 hPa 0,0 l/m 0 min 0 min 30 W/m 31,4 km/h (5 Bft)
08.02.2015 09:16 3,4 C 1,7 C 84 % 1028,6 hPa 0,0 l/m 0 min 0 min 26 W/m 25,1 km/h (4 Bft)
08.02.2015 09:18 3,4 C 1,7 C 84 % 1028,7 hPa 0,0 l/m 0 min 0 min 24 W/m 25,1 km/h (4 Bft)
08.02.2015 09:20 3,4 C 1,7 C 84 % 1028,7 hPa 0,0 l/m 0 min 2 min 30 W/m 29,3 km/h (5 Bft)
08.02.2015 09:22 3,4 C 1,7 C 84 % 1028,8 hPa 0,0 l/m 0 min 2 min 32 W/m 18,8 km/h (3 Bft)
08.02.2015 09:24 3,4 C 1,7 C 83 % 1028,9 hPa 0,0 l/m 0 min 0 min 21 W/m 23,0 km/h (4 Bft)
08.02.2015 09:26 3,4 C 1,7 C 83 % 1028,9 hPa 0,0 l/m 0 min 0 min 19 W/m 23,0 km/h (4 Bft)
08.02.2015 09:28 3,4 C 1,1 C 83 % 1028,9 hPa 0,0 l/m 0 min 2 min 16 W/m 23,0 km/h (4 Bft)
08.02.2015 09:30 3,4 C 1,1 C 84 % 1028,9 hPa 0,0 l/m 0 min 2 min 17 W/m 31,4 km/h (5 Bft)
08.02.2015 09:32 3,4 C 1,1 C 83 % 1029,0 hPa 0,0 l/m 0 min 2 min 16 W/m 18,8 km/h (3 Bft)
08.02.2015 09:34 3,4 C 1,1 C 83 % 1029,0 hPa 0,0 l/m 0 min 2 min 12 W/m 16,7 km/h (3 Bft)
08.02.2015 09:36 3,4 C 1,1 C 84 % 1029,0 hPa 0,0 l/m 0 min 0 min 14 W/m 23,0 km/h (4 Bft)
08.02.2015 09:38 3,4 C 1,1 C 84 % 1029,0 hPa 0,0 l/m 0 min 2 min 14 W/m 20,9 km/h (4 Bft)
08.02.2015 09:40 3,4 C 1,1 C 84 % 1028,9 hPa 0,0 l/m 0 min 0 min 16 W/m 27,2 km/h (4 Bft)
08.02.2015 09:42 3,3 C 1,1 C 84 % 1029,2 hPa 0,0 l/m 0 min 0 min 18 W/m 20,9 km/h (4 Bft)
08.02.2015 09:44 3,3 C 1,1 C 84 % 1029,2 hPa 0,0 l/m 0 min 2 min 21 W/m 25,1 km/h (4 Bft)
08.02.2015 09:46 3,3 C 1,1 C 84 % 1029,2 hPa 0,0 l/m 0 min 0 min 26 W/m 14,6 km/h (3 Bft)
08.02.2015 09:48 3,3 C 1,1 C 84 % 1029,2 hPa 0,0 l/m 0 min 0 min 26 W/m 14,6 km/h (3 Bft)
08.02.2015 09:50 3,3 C 1,1 C 84 % 1029,3 hPa 0,0 l/m 0 min 0 min 22 W/m 16,7 km/h (3 Bft)
08.02.2015 09:52 3,3 C 1,1 C 84 % 1029,5 hPa 0,0 l/m 0 min 0 min 20 W/m 18,8 km/h (3 Bft)
08.02.2015 09:54 3,3 C 1,1 C 85 % 1029,4 hPa 0,0 l/m 0 min 0 min 20 W/m 18,8 km/h (3 Bft)
08.02.2015 09:56 3,2 C 1,1 C 85 % 1029,4 hPa 0,0 l/m 0 min 0 min 41 W/m 20,9 km/h (4 Bft)
08.02.2015 09:58 3,2 C 1,1 C 85 % 1029,5 hPa 0,0 l/m 0 min 2 min 75 W/m 27,2 km/h (4 Bft)
08.02.2015 10:00 3,2 C 1,7 C 85 % 1029,5 hPa 0,0 l/m 0 min 0 min 83 W/m 31,4 km/h (5 Bft)
08.02.2015 10:02 3,2 C 1,7 C 85 % 1029,5 hPa 0,0 l/m 0 min 0 min 91 W/m 20,9 km/h (4 Bft)
08.02.2015 10:04 3,2 C 1,7 C 85 % 1029,5 hPa 0,0 l/m 0 min 0 min 103 W/m 18,8 km/h (3 Bft)
08.02.2015 10:06 3,2 C 1,7 C 86 % 1029,5 hPa 0,0 l/m 0 min 0 min 102 W/m 25,1 km/h (4 Bft)
08.02.2015 10:08 3,2 C 1,7 C 86 % 1029,6 hPa 0,0 l/m 0 min 0 min 99 W/m 18,8 km/h (3 Bft)
08.02.2015 10:10 3,2 C 1,7 C 86 % 1029,6 hPa 0,0 l/m 0 min 0 min 94 W/m 25,1 km/h (4 Bft)
08.02.2015 10:12 3,2 C 1,7 C 86 % 1029,6 hPa 0,0 l/m 0 min 0 min 97 W/m 18,8 km/h (3 Bft)
08.02.2015 10:14 3,2 C 1,7 C 86 % 1029,7 hPa 0,0 l/m 0 min 0 min 86 W/m 20,9 km/h (4 Bft)
08.02.2015 10:16 3,3 C 1,7 C 86 % 1029,8 hPa 0,0 l/m 0 min 0 min 83 W/m 23,0 km/h (4 Bft)
08.02.2015 10:18 3,3 C 1,7 C 86 % 1029,9 hPa 0,0 l/m 0 min 0 min 97 W/m 18,8 km/h (3 Bft)
08.02.2015 10:20 3,3 C 2,2 C 86 % 1029,9 hPa 0,0 l/m 0 min 0 min 123 W/m 18,8 km/h (3 Bft)
08.02.2015 10:22 3,3 C 2,2 C 86 % 1029,9 hPa 0,0 l/m 0 min 0 min 132 W/m 20,9 km/h (4 Bft)
08.02.2015 10:24 3,3 C 2,2 C 85 % 1029,8 hPa 0,0 l/m 2 min 0 min 149 W/m 25,1 km/h (4 Bft)
08.02.2015 10:26 3,4 C 2,2 C 85 % 1029,9 hPa 0,0 l/m 0 min 0 min 125 W/m 29,3 km/h (5 Bft)
08.02.2015 10:28 3,4 C 2,2 C 85 % 1029,9 hPa 0,0 l/m 0 min 0 min 106 W/m 20,9 km/h (4 Bft)
08.02.2015 10:30 3,4 C 2,2 C 85 % 1029,9 hPa 0,0 l/m 0 min 0 min 104 W/m 25,1 km/h (4 Bft)
08.02.2015 10:32 3,5 C 2,2 C 84 % 1030,0 hPa 0,0 l/m 0 min 0 min 117 W/m 23,0 km/h (4 Bft)
08.02.2015 10:34 3,5 C 2,2 C 84 % 1030,0 hPa 0,0 l/m 0 min 0 min 118 W/m 27,2 km/h (4 Bft)
08.02.2015 10:36 3,6 C 2,2 C 84 % 1030,0 hPa 0,0 l/m 0 min 0 min 107 W/m 23,0 km/h (4 Bft)
08.02.2015 10:38 3,6 C 2,2 C 84 % 1030,0 hPa 0,0 l/m 0 min 0 min 103 W/m 29,3 km/h (5 Bft)
08.02.2015 10:40 3,6 C 2,2 C 84 % 1030,2 hPa 0,2 l/m 0 min 0 min 90 W/m 43,9 km/h (6 Bft)
08.02.2015 10:42 3,6 C 2,2 C 83 % 1030,1 hPa 0,0 l/m 0 min 0 min 54 W/m 31,4 km/h (5 Bft)
08.02.2015 10:44 3,6 C 2,2 C 83 % 1030,2 hPa 0,0 l/m 0 min 0 min 34 W/m 29,3 km/h (5 Bft)
08.02.2015 10:46 3,6 C 2,2 C 83 % 1030,2 hPa 0,0 l/m 0 min 2 min 34 W/m 20,9 km/h (4 Bft)
08.02.2015 10:48 3,6 C 1,7 C 83 % 1030,2 hPa 0,0 l/m 0 min 2 min 43 W/m 29,3 km/h (5 Bft)
08.02.2015 10:50 3,6 C 1,1 C 84 % 1030,2 hPa 0,0 l/m 0 min 2 min 49 W/m 29,3 km/h (5 Bft)
08.02.2015 10:52 3,5 C 1,1 C 84 % 1030,3 hPa 0,0 l/m 0 min 2 min 54 W/m 35,6 km/h (5 Bft)
08.02.2015 10:54 3,4 C 1,1 C 84 % 1030,3 hPa 0,0 l/m 0 min 2 min 55 W/m 41,8 km/h (6 Bft)
08.02.2015 10:56 3,3 C 1,1 C 85 % 1030,3 hPa 0,0 l/m 0 min 2 min 48 W/m 29,3 km/h (5 Bft)
08.02.2015 10:58 3,3 C 1,1 C 85 % 1030,3 hPa 0,0 l/m 0 min 2 min 38 W/m 29,3 km/h (5 Bft)
08.02.2015 11:00 3,2 C 1,1 C 86 % 1030,5 hPa 0,2 l/m 0 min 2 min 45 W/m 35,6 km/h (5 Bft)
08.02.2015 11:02 3,1 C 1,1 C 86 % 1030,4 hPa 0,0 l/m 0 min 2 min 49 W/m 27,2 km/h (4 Bft)
08.02.2015 11:04 3,1 C 1,1 C 86 % 1030,5 hPa 0,0 l/m 0 min 2 min 50 W/m 23,0 km/h (4 Bft)
08.02.2015 11:06 2,9 C 1,1 C 87 % 1030,5 hPa 0,0 l/m 0 min 2 min 44 W/m 31,4 km/h (5 Bft)
08.02.2015 11:08 2,8 C 0,6 C 87 % 1030,5 hPa 0,0 l/m 0 min 2 min 37 W/m 50,2 km/h (7 Bft)
08.02.2015 11:10 2,7 C 0,6 C 88 % 1030,5 hPa 0,0 l/m 0 min 2 min 68 W/m 29,3 km/h (5 Bft)
08.02.2015 11:12 2,7 C 0,6 C 88 % 1030,5 hPa 0,0 l/m 0 min 2 min 109 W/m 29,3 km/h (5 Bft)
08.02.2015 11:14 2,6 C 0,6 C 89 % 1030,5 hPa 0,0 l/m 0 min 2 min 141 W/m 27,2 km/h (4 Bft)
08.02.2015 11:16 2,5 C 0,6 C 89 % 1030,6 hPa 0,0 l/m 0 min 2 min 116 W/m 25,1 km/h (4 Bft)
08.02.2015 11:18 2,5 C 1,1 C 90 % 1030,5 hPa 0,0 l/m 0 min 2 min 105 W/m 31,4 km/h (5 Bft)
08.02.2015 11:20 2,4 C 1,1 C 90 % 1030,6 hPa 0,0 l/m 0 min 2 min 105 W/m 27,2 km/h (4 Bft)
08.02.2015 11:22 2,4 C 1,1 C 90 % 1030,6 hPa 0,0 l/m 0 min 2 min 117 W/m 29,3 km/h (5 Bft)
08.02.2015 11:24 2,4 C 1,1 C 91 % 1030,6 hPa 0,0 l/m 0 min 2 min 139 W/m 27,2 km/h (4 Bft)
08.02.2015 11:26 2,4 C 1,1 C 91 % 1030,5 hPa 0,0 l/m 0 min 0 min 149 W/m 23,0 km/h (4 Bft)
08.02.2015 11:28 2,4 C 1,7 C 91 % 1030,6 hPa 0,0 l/m 0 min 0 min 161 W/m 18,8 km/h (3 Bft)
08.02.2015 11:30 2,5 C 1,7 C 91 % 1030,6 hPa 0,0 l/m 0 min 0 min 153 W/m 18,8 km/h (3 Bft)
08.02.2015 11:32 2,6 C 1,7 C 91 % 1030,6 hPa 0,0 l/m 0 min 0 min 151 W/m 14,6 km/h (3 Bft)
08.02.2015 11:34 2,6 C 1,7 C 91 % 1030,6 hPa 0,0 l/m 0 min 0 min 137 W/m 14,6 km/h (3 Bft)
08.02.2015 11:36 2,6 C 1,7 C 92 % 1030,6 hPa 0,0 l/m 0 min 0 min 142 W/m 16,7 km/h (3 Bft)
08.02.2015 11:38 2,6 C 1,7 C 92 % 1030,6 hPa 0,0 l/m 0 min 0 min 154 W/m 12,6 km/h (3 Bft)
08.02.2015 11:40 2,7 C 1,7 C 92 % 1030,6 hPa 0,0 l/m 0 min 0 min 147 W/m 12,6 km/h (3 Bft)
08.02.2015 11:42 2,7 C 1,7 C 92 % 1030,6 hPa 0,0 l/m 0 min 0 min 128 W/m 16,7 km/h (3 Bft)
08.02.2015 11:44 2,7 C 1,7 C 92 % 1030,6 hPa 0,0 l/m 0 min 0 min 114 W/m 16,7 km/h (3 Bft)
08.02.2015 11:46 2,7 C 1,7 C 92 % 1030,6 hPa 0,0 l/m 0 min 0 min 108 W/m 16,7 km/h (3 Bft)
08.02.2015 11:48 2,7 C 1,7 C 92 % 1030,5 hPa 0,0 l/m 0 min 0 min 120 W/m 18,8 km/h (3 Bft)
08.02.2015 11:50 2,7 C 1,7 C 92 % 1030,4 hPa 0,0 l/m 0 min 0 min 141 W/m 20,9 km/h (4 Bft)
08.02.2015 11:52 2,8 C 2,2 C 92 % 1030,4 hPa 0,0 l/m 0 min 0 min 123 W/m 16,7 km/h (3 Bft)
08.02.2015 11:54 2,8 C 1,7 C 92 % 1030,4 hPa 0,0 l/m 0 min 0 min 100 W/m 14,6 km/h (3 Bft)
08.02.2015 11:56 2,8 C 1,7 C 92 % 1030,6 hPa 0,0 l/m 0 min 0 min 118 W/m 12,6 km/h (3 Bft)
08.02.2015 11:58 2,8 C 2,2 C 92 % 1030,6 hPa 0,0 l/m 0 min 0 min 111 W/m 8,4 km/h (2 Bft)
08.02.2015 12:00 2,8 C 1,7 C 92 % 1030,7 hPa 0,0 l/m 0 min 0 min 94 W/m 14,6 km/h (3 Bft)
08.02.2015 12:02 2,9 C 1,7 C 92 % 1030,6 hPa 0,0 l/m 0 min 0 min 102 W/m 23,0 km/h (4 Bft)
08.02.2015 12:06 2,9 C 1,7 C 92 % 1030,6 hPa 0,0 l/m 0 min 0 min 132 W/m 27,2 km/h (4 Bft)
08.02.2015 12:08 2,9 C 2,2 C 92 % 1030,6 hPa 0,0 l/m 0 min 0 min 122 W/m 27,2 km/h (4 Bft)
08.02.2015 12:10 2,9 C 2,2 C 92 % 1030,7 hPa 0,0 l/m 0 min 0 min 112 W/m 16,7 km/h (3 Bft)
08.02.2015 12:12 2,9 C 2,2 C 92 % 1030,6 hPa 0,0 l/m 0 min 0 min 74 W/m 23,0 km/h (4 Bft)
08.02.2015 12:14 3,0 C 2,2 C 92 % 1030,6 hPa 0,0 l/m 0 min 0 min 94 W/m 23,0 km/h (4 Bft)
08.02.2015 12:16 3,0 C 2,2 C 92 % 1030,6 hPa 0,0 l/m 0 min 0 min 101 W/m 20,9 km/h (4 Bft)
08.02.2015 12:18 3,1 C 2,2 C 91 % 1030,6 hPa 0,0 l/m 0 min 0 min 104 W/m 20,9 km/h (4 Bft)
08.02.2015 12:20 3,1 C 2,2 C 91 % 1030,7 hPa 0,0 l/m 0 min 0 min 126 W/m 14,6 km/h (3 Bft)
08.02.2015 12:22 3,1 C 2,2 C 91 % 1030,7 hPa 0,0 l/m 0 min 0 min 124 W/m 23,0 km/h (4 Bft)
08.02.2015 12:24 3,2 C 2,2 C 91 % 1030,7 hPa 0,0 l/m 0 min 0 min 128 W/m 31,4 km/h (5 Bft)
08.02.2015 12:26 3,2 C 2,2 C 90 % 1030,8 hPa 0,0 l/m 0 min 0 min 125 W/m 27,2 km/h (4 Bft)
08.02.2015 12:28 3,2 C 2,2 C 90 % 1030,8 hPa 0,0 l/m 0 min 0 min 135 W/m 23,0 km/h (4 Bft)
08.02.2015 12:30 3,3 C 2,2 C 89 % 1030,7 hPa 0,0 l/m 0 min 0 min 136 W/m 18,8 km/h (3 Bft)
08.02.2015 12:32 3,3 C 2,2 C 89 % 1030,8 hPa 0,0 l/m 0 min 0 min 140 W/m 29,3 km/h (5 Bft)
08.02.2015 12:34 3,3 C 2,2 C 89 % 1030,8 hPa 0,0 l/m 0 min 0 min 145 W/m 23,0 km/h (4 Bft)
08.02.2015 12:36 3,4 C 2,8 C 89 % 1030,7 hPa 0,0 l/m 0 min 0 min 140 W/m 23,0 km/h (4 Bft)
08.02.2015 12:38 3,4 C 2,8 C 88 % 1030,6 hPa 0,0 l/m 0 min 0 min 136 W/m 18,8 km/h (3 Bft)
08.02.2015 12:40 3,4 C 2,8 C 88 % 1030,6 hPa 0,0 l/m 0 min 0 min 124 W/m 18,8 km/h (3 Bft)
08.02.2015 12:42 3,5 C 2,8 C 88 % 1030,6 hPa 0,0 l/m 0 min 0 min 131 W/m 14,6 km/h (3 Bft)
08.02.2015 12:44 3,5 C 2,8 C 88 % 1030,7 hPa 0,0 l/m 0 min 0 min 141 W/m 27,2 km/h (4 Bft)
08.02.2015 12:46 3,5 C 2,8 C 87 % 1030,7 hPa 0,0 l/m 0 min 0 min 138 W/m 20,9 km/h (4 Bft)
08.02.2015 12:48 3,6 C 2,8 C 87 % 1030,7 hPa 0,0 l/m 0 min 0 min 133 W/m 16,7 km/h (3 Bft)
08.02.2015 12:50 3,6 C 2,8 C 87 % 1030,9 hPa 0,0 l/m 0 min 0 min 126 W/m 31,4 km/h (5 Bft)
08.02.2015 12:52 3,6 C 2,8 C 86 % 1030,9 hPa 0,0 l/m 0 min 0 min 122 W/m 23,0 km/h (4 Bft)
08.02.2015 12:54 3,6 C 2,8 C 86 % 1031,0 hPa 0,0 l/m 0 min 0 min 134 W/m 25,1 km/h (4 Bft)
08.02.2015 12:56 3,7 C 2,8 C 86 % 1031,0 hPa 0,0 l/m 0 min 0 min 135 W/m 18,8 km/h (3 Bft)
08.02.2015 12:58 3,7 C 2,8 C 86 % 1031,0 hPa 0,0 l/m 0 min 0 min 139 W/m 14,6 km/h (3 Bft)
08.02.2015 13:00 3,7 C 2,8 C 86 % 1030,9 hPa 0,0 l/m 0 min 0 min 148 W/m 14,6 km/h (3 Bft)
08.02.2015 13:02 3,7 C 2,8 C 86 % 1030,9 hPa 0,0 l/m 0 min 0 min 166 W/m 23,0 km/h (4 Bft)
08.02.2015 13:04 3,7 C 2,8 C 85 % 1031,0 hPa 0,0 l/m 0 min 0 min 181 W/m 25,1 km/h (4 Bft)
08.02.2015 13:06 3,8 C 2,8 C 85 % 1031,0 hPa 0,0 l/m 2 min 0 min 202 W/m 23,0 km/h (4 Bft)
08.02.2015 13:08 3,8 C 2,8 C 85 % 1030,9 hPa 0,0 l/m 0 min 0 min 199 W/m 23,0 km/h (4 Bft)
08.02.2015 13:10 3,8 C 2,8 C 85 % 1030,8 hPa 0,0 l/m 0 min 0 min 187 W/m 23,0 km/h (4 Bft)
08.02.2015 13:12 3,8 C 2,8 C 85 % 1030,9 hPa 0,0 l/m 0 min 0 min 175 W/m 25,1 km/h (4 Bft)
08.02.2015 13:14 3,8 C 2,8 C 85 % 1030,9 hPa 0,0 l/m 2 min 0 min 248 W/m 20,9 km/h (4 Bft)
08.02.2015 13:16 3,8 C 2,8 C 85 % 1030,8 hPa 0,0 l/m 2 min 0 min 350 W/m 16,7 km/h (3 Bft)
08.02.2015 13:18 3,9 C 2,8 C 85 % 1030,9 hPa 0,0 l/m 2 min 0 min 349 W/m 20,9 km/h (4 Bft)
08.02.2015 13:20 3,9 C 2,8 C 84 % 1030,8 hPa 0,0 l/m 2 min 0 min 325 W/m 25,1 km/h (4 Bft)
08.02.2015 13:22 4,0 C 2,8 C 84 % 1030,7 hPa 0,0 l/m 2 min 0 min 261 W/m 20,9 km/h (4 Bft)
08.02.2015 13:24 4,1 C 2,8 C 84 % 1030,7 hPa 0,0 l/m 2 min 0 min 320 W/m 25,1 km/h (4 Bft)
08.02.2015 13:26 4,1 C 2,8 C 84 % 1030,8 hPa 0,0 l/m 2 min 0 min 283 W/m 23,0 km/h (4 Bft)
08.02.2015 13:28 4,2 C 3,3 C 84 % 1030,8 hPa 0,0 l/m 2 min 0 min 322 W/m 25,1 km/h (4 Bft)
08.02.2015 13:30 4,2 C 3,3 C 83 % 1030,8 hPa 0,0 l/m 2 min 0 min 311 W/m 20,9 km/h (4 Bft)
08.02.2015 13:32 4,2 C 3,3 C 83 % 1030,8 hPa 0,0 l/m 2 min 0 min 251 W/m 25,1 km/h (4 Bft)
08.02.2015 13:34 4,3 C 3,3 C 83 % 1030,8 hPa 0,0 l/m 2 min 0 min 300 W/m 18,8 km/h (3 Bft)
08.02.2015 13:36 4,3 C 3,3 C 83 % 1030,8 hPa 0,0 l/m 2 min 0 min 297 W/m 25,1 km/h (4 Bft)
08.02.2015 13:38 4,3 C 2,8 C 82 % 1030,7 hPa 0,0 l/m 2 min 0 min 219 W/m 18,8 km/h (3 Bft)
08.02.2015 13:40 4,4 C 2,8 C 82 % 1030,7 hPa 0,0 l/m 2 min 0 min 259 W/m 23,0 km/h (4 Bft)
08.02.2015 13:42 4,4 C 3,3 C 82 % 1030,7 hPa 0,0 l/m 2 min 0 min 262 W/m 25,1 km/h (4 Bft)
08.02.2015 13:44 4,4 C 3,3 C 82 % 1030,7 hPa 0,0 l/m 2 min 0 min 346 W/m 25,1 km/h (4 Bft)
08.02.2015 13:46 4,5 C 3,3 C 82 % 1030,7 hPa 0,0 l/m 2 min 0 min 314 W/m 29,3 km/h (5 Bft)
08.02.2015 13:48 4,5 C 3,3 C 81 % 1030,8 hPa 0,0 l/m 2 min 0 min 340 W/m 23,0 km/h (4 Bft)
08.02.2015 13:50 4,5 C 3,3 C 81 % 1030,8 hPa 0,0 l/m 2 min 0 min 377 W/m 29,3 km/h (5 Bft)
08.02.2015 13:52 4,6 C 3,3 C 81 % 1030,8 hPa 0,0 l/m 2 min 0 min 350 W/m 16,7 km/h (3 Bft)
08.02.2015 13:54 4,6 C 3,3 C 80 % 1030,8 hPa 0,0 l/m 2 min 0 min 405 W/m 16,7 km/h (3 Bft)
08.02.2015 13:56 4,7 C 3,3 C 81 % 1030,8 hPa 0,0 l/m 2 min 0 min 409 W/m 23,0 km/h (4 Bft)
08.02.2015 13:58 4,7 C 3,3 C 80 % 1030,8 hPa 0,0 l/m 2 min 0 min 404 W/m 20,9 km/h (4 Bft)
08.02.2015 14:00 4,8 C 3,3 C 80 % 1030,8 hPa 0,0 l/m 2 min 0 min 390 W/m 27,2 km/h (4 Bft)
08.02.2015 14:02 4,8 C 3,3 C 80 % 1030,8 hPa 0,0 l/m 2 min 0 min 369 W/m 27,2 km/h (4 Bft)
08.02.2015 14:04 4,9 C 3,3 C 79 % 1030,8 hPa 0,0 l/m 2 min 0 min 338 W/m 29,3 km/h (5 Bft)
08.02.2015 14:06 4,9 C 3,3 C 79 % 1030,9 hPa 0,0 l/m 2 min 0 min 336 W/m 29,3 km/h (5 Bft)
08.02.2015 14:08 4,9 C 3,3 C 78 % 1030,9 hPa 0,0 l/m 2 min 0 min 249 W/m 27,2 km/h (4 Bft)
08.02.2015 14:10 4,9 C 3,3 C 78 % 1030,9 hPa 0,0 l/m 2 min 0 min 354 W/m 29,3 km/h (5 Bft)
08.02.2015 14:12 4,9 C 3,3 C 78 % 1030,9 hPa 0,2 l/m 2 min 0 min 371 W/m 31,4 km/h (5 Bft)
08.02.2015 14:14 4,9 C 3,3 C 78 % 1030,9 hPa 0,0 l/m 2 min 0 min 351 W/m 29,3 km/h (5 Bft)
08.02.2015 14:16 4,9 C 3,3 C 77 % 1031,0 hPa 0,0 l/m 2 min 0 min 272 W/m 27,2 km/h (4 Bft)
08.02.2015 14:18 4,9 C 3,3 C 77 % 1031,0 hPa 0,0 l/m 2 min 0 min 338 W/m 29,3 km/h (5 Bft)
08.02.2015 14:20 4,9 C 3,3 C 77 % 1031,0 hPa 0,0 l/m 2 min 0 min 317 W/m 27,2 km/h (4 Bft)
08.02.2015 14:22 4,8 C 3,3 C 77 % 1031,0 hPa 0,0 l/m 2 min 0 min 267 W/m 25,1 km/h (4 Bft)
08.02.2015 14:24 4,9 C 3,3 C 77 % 1030,9 hPa 0,0 l/m 2 min 0 min 324 W/m 20,9 km/h (4 Bft)
08.02.2015 14:26 4,9 C 3,3 C 77 % 1030,9 hPa 0,0 l/m 2 min 0 min 342 W/m 23,0 km/h (4 Bft)
08.02.2015 14:28 4,9 C 3,3 C 78 % 1030,8 hPa 0,0 l/m 2 min 0 min 330 W/m 16,7 km/h (3 Bft)
08.02.2015 14:30 4,9 C 3,3 C 78 % 1030,8 hPa 0,0 l/m 2 min 0 min 322 W/m 25,1 km/h (4 Bft)
08.02.2015 14:32 5,0 C 3,3 C 77 % 1030,8 hPa 0,0 l/m 2 min 0 min 312 W/m 23,0 km/h (4 Bft)
08.02.2015 14:34 5,0 C 3,3 C 77 % 1030,7 hPa 0,0 l/m 2 min 0 min 288 W/m 23,0 km/h (4 Bft)
08.02.2015 14:36 5,0 C 3,3 C 77 % 1030,7 hPa 0,0 l/m 2 min 0 min 299 W/m 20,9 km/h (4 Bft)
08.02.2015 14:38 5,1 C 3,9 C 77 % 1030,7 hPa 0,0 l/m 2 min 0 min 300 W/m 18,8 km/h (3 Bft)
08.02.2015 14:40 5,1 C 3,9 C 77 % 1030,7 hPa 0,0 l/m 2 min 0 min 274 W/m 20,9 km/h (4 Bft)
08.02.2015 14:42 5,1 C 3,9 C 77 % 1030,7 hPa 0,0 l/m 2 min 0 min 305 W/m 20,9 km/h (4 Bft)
08.02.2015 14:44 5,2 C 3,9 C 77 % 1030,7 hPa 0,0 l/m 2 min 0 min 301 W/m 23,0 km/h (4 Bft)
08.02.2015 14:46 5,2 C 3,9 C 76 % 1030,7 hPa 0,0 l/m 2 min 0 min 277 W/m 25,1 km/h (4 Bft)
08.02.2015 14:48 5,2 C 3,9 C 76 % 1030,8 hPa 0,0 l/m 2 min 0 min 267 W/m 18,8 km/h (3 Bft)
08.02.2015 14:50 5,2 C 3,9 C 76 % 1030,7 hPa 0,0 l/m 2 min 0 min 227 W/m 20,9 km/h (4 Bft)
08.02.2015 14:52 5,2 C 3,9 C 76 % 1030,7 hPa 0,0 l/m 2 min 0 min 234 W/m 18,8 km/h (3 Bft)
08.02.2015 14:54 5,2 C 3,9 C 76 % 1030,8 hPa 0,0 l/m 2 min 0 min 240 W/m 23,0 km/h (4 Bft)
08.02.2015 14:56 5,3 C 3,9 C 76 % 1030,8 hPa 0,0 l/m 2 min 0 min 230 W/m 27,2 km/h (4 Bft)
08.02.2015 14:58 5,3 C 3,9 C 76 % 1030,9 hPa 0,0 l/m 2 min 0 min 217 W/m 20,9 km/h (4 Bft)
08.02.2015 15:00 5,3 C 3,9 C 75 % 1031,0 hPa 0,0 l/m 2 min 0 min 190 W/m 23,0 km/h (4 Bft)
08.02.2015 15:02 5,2 C 3,3 C 75 % 1031,1 hPa 0,0 l/m 2 min 0 min 153 W/m 27,2 km/h (4 Bft)
08.02.2015 15:04 5,2 C 3,3 C 76 % 1031,2 hPa 0,0 l/m 2 min 0 min 229 W/m 25,1 km/h (4 Bft)
08.02.2015 15:06 5,2 C 3,3 C 76 % 1031,0 hPa 0,0 l/m 2 min 0 min 223 W/m 25,1 km/h (4 Bft)
08.02.2015 15:08 5,2 C 3,9 C 76 % 1031,0 hPa 0,0 l/m 2 min 0 min 270 W/m 25,1 km/h (4 Bft)
08.02.2015 15:10 5,2 C 3,9 C 76 % 1031,0 hPa 0,0 l/m 2 min 0 min 272 W/m 29,3 km/h (5 Bft)
08.02.2015 15:12 5,2 C 3,9 C 76 % 1031,0 hPa 0,0 l/m 2 min 0 min 271 W/m 23,0 km/h (4 Bft)
08.02.2015 15:14 5,2 C 3,9 C 76 % 1031,0 hPa 0,0 l/m 2 min 0 min 273 W/m 27,2 km/h (4 Bft)
08.02.2015 15:16 5,2 C 3,9 C 76 % 1031,0 hPa 0,0 l/m 2 min 0 min 273 W/m 16,7 km/h (3 Bft)
08.02.2015 15:18 5,3 C 3,9 C 76 % 1031,0 hPa 0,0 l/m 2 min 0 min 264 W/m 18,8 km/h (3 Bft)
08.02.2015 15:20 5,3 C 3,9 C 76 % 1031,0 hPa 0,0 l/m 2 min 0 min 273 W/m 23,0 km/h (4 Bft)
08.02.2015 15:22 5,3 C 3,9 C 75 % 1031,1 hPa 0,0 l/m 2 min 0 min 276 W/m 31,4 km/h (5 Bft)
08.02.2015 15:24 5,3 C 3,9 C 74 % 1031,0 hPa 0,0 l/m 2 min 0 min 256 W/m 25,1 km/h (4 Bft)
08.02.2015 15:26 5,3 C 3,9 C 74 % 1031,1 hPa 0,0 l/m 2 min 0 min 252 W/m 20,9 km/h (4 Bft)
08.02.2015 15:28 5,4 C 3,9 C 73 % 1031,0 hPa 0,0 l/m 2 min 0 min 251 W/m 31,4 km/h (5 Bft)
08.02.2015 15:30 5,4 C 3,9 C 73 % 1031,0 hPa 0,0 l/m 2 min 0 min 246 W/m 27,2 km/h (4 Bft)
08.02.2015 15:32 5,4 C 3,9 C 73 % 1031,0 hPa 0,0 l/m 2 min 0 min 230 W/m 27,2 km/h (4 Bft)
08.02.2015 15:34 5,4 C 3,9 C 72 % 1031,0 hPa 0,0 l/m 2 min 0 min 210 W/m 25,1 km/h (4 Bft)
08.02.2015 15:36 5,4 C 3,9 C 72 % 1031,0 hPa 0,0 l/m 2 min 0 min 204 W/m 23,0 km/h (4 Bft)
08.02.2015 15:38 5,4 C 3,9 C 72 % 1031,0 hPa 0,0 l/m 2 min 0 min 190 W/m 31,4 km/h (5 Bft)
08.02.2015 15:40 5,4 C 3,9 C 73 % 1030,9 hPa 0,0 l/m 2 min 0 min 168 W/m 29,3 km/h (5 Bft)
08.02.2015 15:42 5,3 C 3,3 C 73 % 1031,0 hPa 0,0 l/m 2 min 0 min 157 W/m 33,5 km/h (5 Bft)
08.02.2015 15:44 5,3 C 3,9 C 73 % 1031,0 hPa 0,0 l/m 2 min 0 min 150 W/m 18,8 km/h (3 Bft)
08.02.2015 15:46 5,3 C 3,9 C 74 % 1031,0 hPa 0,0 l/m 2 min 0 min 149 W/m 20,9 km/h (4 Bft)
08.02.2015 15:48 5,2 C 3,9 C 74 % 1031,0 hPa 0,0 l/m 2 min 0 min 160 W/m 25,1 km/h (4 Bft)
08.02.2015 15:50 5,2 C 3,9 C 74 % 1031,0 hPa 0,0 l/m 2 min 0 min 154 W/m 29,3 km/h (5 Bft)
08.02.2015 15:52 5,2 C 3,3 C 74 % 1031,0 hPa 0,0 l/m 2 min 0 min 176 W/m 23,0 km/h (4 Bft)
08.02.2015 15:54 5,2 C 3,9 C 74 % 1030,9 hPa 0,0 l/m 2 min 0 min 205 W/m 29,3 km/h (5 Bft)
08.02.2015 15:56 5,1 C 3,9 C 74 % 1031,0 hPa 0,0 l/m 2 min 0 min 188 W/m 29,3 km/h (5 Bft)
08.02.2015 15:58 5,1 C 3,9 C 74 % 1031,0 hPa 0,0 l/m 2 min 0 min 164 W/m 29,3 km/h (5 Bft)
08.02.2015 16:00 5,1 C 3,3 C 73 % 1030,8 hPa 0,0 l/m 2 min 0 min 135 W/m 31,4 km/h (5 Bft)
08.02.2015 16:02 5,0 C 3,3 C 73 % 1031,0 hPa 0,0 l/m 2 min 0 min 130 W/m 25,1 km/h (4 Bft)
08.02.2015 16:04 5,0 C 3,3 C 73 % 1031,0 hPa 0,0 l/m 2 min 0 min 137 W/m 29,3 km/h (5 Bft)
08.02.2015 16:06 5,0 C 3,3 C 73 % 1031,0 hPa 0,0 l/m 2 min 0 min 127 W/m 39,7 km/h (6 Bft)
08.02.2015 16:08 4,9 C 3,3 C 73 % 1031,0 hPa 0,0 l/m 2 min 0 min 120 W/m 31,4 km/h (5 Bft)
08.02.2015 16:10 4,9 C 3,3 C 73 % 1031,0 hPa 0,0 l/m 2 min 0 min 107 W/m 35,6 km/h (5 Bft)
08.02.2015 16:12 4,9 C 3,3 C 73 % 1031,0 hPa 0,0 l/m 2 min 0 min 97 W/m 33,5 km/h (5 Bft)
08.02.2015 16:14 4,8 C 3,3 C 73 % 1031,0 hPa 0,0 l/m 2 min 0 min 101 W/m 37,7 km/h (5 Bft)
08.02.2015 16:16 4,8 C 3,3 C 73 % 1030,9 hPa 0,0 l/m 2 min 0 min 98 W/m 35,6 km/h (5 Bft)
08.02.2015 16:18 4,8 C 3,3 C 74 % 1030,9 hPa 0,0 l/m 2 min 0 min 97 W/m 27,2 km/h (4 Bft)
08.02.2015 16:20 4,7 C 3,3 C 74 % 1030,9 hPa 0,0 l/m 2 min 0 min 105 W/m 25,1 km/h (4 Bft)
08.02.2015 16:22 4,7 C 3,3 C 74 % 1031,0 hPa 0,0 l/m 2 min 0 min 107 W/m 27,2 km/h (4 Bft)
08.02.2015 16:24 4,7 C 3,3 C 75 % 1031,0 hPa 0,0 l/m 2 min 0 min 104 W/m 23,0 km/h (4 Bft)
08.02.2015 16:26 4,7 C 3,3 C 75 % 1031,1 hPa 0,0 l/m 2 min 0 min 99 W/m 25,1 km/h (4 Bft)
08.02.2015 16:28 4,7 C 3,3 C 75 % 1031,1 hPa 0,0 l/m 2 min 0 min 96 W/m 27,2 km/h (4 Bft)
08.02.2015 16:30 4,7 C 3,3 C 76 % 1031,1 hPa 0,0 l/m 2 min 0 min 95 W/m 23,0 km/h (4 Bft)
08.02.2015 16:32 4,6 C 3,3 C 76 % 1031,1 hPa 0,0 l/m 2 min 0 min 95 W/m 25,1 km/h (4 Bft)
08.02.2015 16:34 4,6 C 3,3 C 76 % 1031,1 hPa 0,0 l/m 2 min 0 min 92 W/m 31,4 km/h (5 Bft)
08.02.2015 16:36 4,6 C 3,3 C 77 % 1031,0 hPa 0,0 l/m 2 min 0 min 90 W/m 27,2 km/h (4 Bft)
08.02.2015 16:38 4,6 C 3,3 C 77 % 1031,1 hPa 0,0 l/m 2 min 0 min 86 W/m 29,3 km/h (5 Bft)
08.02.2015 16:40 4,6 C 3,3 C 77 % 1031,1 hPa 0,0 l/m 2 min 0 min 84 W/m 29,3 km/h (5 Bft)
08.02.2015 16:42 4,6 C 3,3 C 77 % 1031,0 hPa 0,0 l/m 2 min 0 min 81 W/m 20,9 km/h (4 Bft)
08.02.2015 16:44 4,6 C 3,3 C 77 % 1031,1 hPa 0,0 l/m 2 min 0 min 78 W/m 16,7 km/h (3 Bft)
08.02.2015 16:46 4,6 C 3,3 C 77 % 1031,0 hPa 0,0 l/m 2 min 0 min 75 W/m 18,8 km/h (3 Bft)
08.02.2015 16:48 4,5 C 3,3 C 78 % 1031,2 hPa 0,0 l/m 2 min 0 min 72 W/m 25,1 km/h (4 Bft)
08.02.2015 16:50 4,5 C 3,3 C 78 % 1031,2 hPa 0,0 l/m 2 min 0 min 72 W/m 20,9 km/h (4 Bft)
08.02.2015 16:52 4,5 C 2,8 C 78 % 1031,2 hPa 0,0 l/m 2 min 0 min 69 W/m 20,9 km/h (4 Bft)
08.02.2015 16:54 4,4 C 2,8 C 78 % 1031,0 hPa 0,0 l/m 2 min 0 min 67 W/m 16,7 km/h (3 Bft)
08.02.2015 16:56 4,4 C 2,8 C 78 % 1031,1 hPa 0,0 l/m 2 min 0 min 63 W/m 16,7 km/h (3 Bft)
08.02.2015 16:58 4,4 C 2,8 C 78 % 1031,0 hPa 0,0 l/m 2 min 0 min 60 W/m 16,7 km/h (3 Bft)
08.02.2015 17:00 4,4 C 2,8 C 78 % 1031,1 hPa 0,0 l/m 2 min 0 min 57 W/m 18,8 km/h (3 Bft)
08.02.2015 17:02 4,4 C 2,8 C 78 % 1031,2 hPa 0,0 l/m 2 min 0 min 53 W/m 16,7 km/h (3 Bft)
08.02.2015 17:04 4,4 C 2,8 C 78 % 1031,2 hPa 0,0 l/m 2 min 0 min 50 W/m 10,5 km/h (2 Bft)
08.02.2015 17:06 4,4 C 2,8 C 79 % 1031,2 hPa 0,0 l/m 2 min 0 min 43 W/m 12,6 km/h (3 Bft)
08.02.2015 17:08 4,4 C 2,8 C 79 % 1031,2 hPa 0,0 l/m 2 min 0 min 36 W/m 12,6 km/h (3 Bft)
08.02.2015 17:10 4,3 C 2,2 C 79 % 1031,2 hPa 0,0 l/m 2 min 0 min 32 W/m 12,6 km/h (3 Bft)
08.02.2015 17:12 4,3 C 2,2 C 79 % 1031,2 hPa 0,0 l/m 2 min 0 min 28 W/m 8,4 km/h (2 Bft)
08.02.2015 17:14 4,3 C 2,2 C 79 % 1031,2 hPa 0,0 l/m 2 min 0 min 26 W/m 10,5 km/h (2 Bft)
08.02.2015 17:16 4,3 C 2,2 C 79 % 1031,2 hPa 0,0 l/m 2 min 0 min 25 W/m 12,6 km/h (3 Bft)
08.02.2015 17:18 4,3 C 2,2 C 79 % 1031,1 hPa 0,0 l/m 2 min 0 min 25 W/m 10,5 km/h (2 Bft)
08.02.2015 17:20 4,2 C 2,2 C 79 % 1031,1 hPa 0,0 l/m 2 min 0 min 23 W/m 16,7 km/h (3 Bft)
08.02.2015 17:22 4,2 C 2,2 C 79 % 1031,1 hPa 0,0 l/m 2 min 0 min 21 W/m 14,6 km/h (3 Bft)
08.02.2015 17:24 4,2 C 2,2 C 79 % 1031,1 hPa 0,0 l/m 2 min 0 min 20 W/m 12,6 km/h (3 Bft)
08.02.2015 17:26 4,2 C 1,7 C 80 % 1031,0 hPa 0,0 l/m 0 min 0 min 18 W/m 14,6 km/h (3 Bft)
08.02.2015 17:28 4,1 C 2,2 C 80 % 1030,9 hPa 0,0 l/m 0 min 0 min 16 W/m 29,3 km/h (5 Bft)
08.02.2015 17:30 4,0 C 2,2 C 80 % 1030,8 hPa 0,0 l/m 0 min 0 min 14 W/m 20,9 km/h (4 Bft)
08.02.2015 17:32 4,0 C 2,2 C 80 % 1030,8 hPa 0,0 l/m 0 min 0 min 12 W/m 12,6 km/h (3 Bft)
08.02.2015 17:34 3,9 C 2,2 C 80 % 1030,8 hPa 0,0 l/m 0 min 0 min 11 W/m 18,8 km/h (3 Bft)
08.02.2015 17:36 3,9 C 1,7 C 80 % 1030,8 hPa 0,0 l/m 0 min 0 min 11 W/m 14,6 km/h (3 Bft)
08.02.2015 17:38 3,9 C 1,7 C 80 % 1030,8 hPa 0,0 l/m 0 min 0 min 9 W/m 14,6 km/h (3 Bft)
08.02.2015 17:40 3,8 C 1,7 C 81 % 1030,9 hPa 0,0 l/m 0 min 0 min 9 W/m 14,6 km/h (3 Bft)
08.02.2015 17:42 3,8 C 1,7 C 81 % 1030,9 hPa 0,0 l/m 0 min 0 min 7 W/m 12,6 km/h (3 Bft)
08.02.2015 17:44 3,8 C 1,7 C 81 % 1031,0 hPa 0,0 l/m 0 min 0 min 7 W/m 12,6 km/h (3 Bft)
08.02.2015 17:46 3,8 C 1,7 C 81 % 1031,1 hPa 0,0 l/m 0 min 0 min 6 W/m 12,6 km/h (3 Bft)
08.02.2015 17:48 3,7 C 1,7 C 81 % 1031,2 hPa 0,0 l/m 0 min 0 min 5 W/m 8,4 km/h (2 Bft)
08.02.2015 17:50 3,7 C 1,7 C 81 % 1031,3 hPa 0,0 l/m 0 min 0 min 2 W/m 6,3 km/h (2 Bft)
08.02.2015 17:52 3,7 C 1,7 C 81 % 1031,4 hPa 0,0 l/m 0 min 0 min 0 W/m 6,3 km/h (2 Bft)
08.02.2015 17:54 3,7 C 1,7 C 81 % 1031,4 hPa 0,0 l/m 0 min 0 min 0 W/m 8,4 km/h (2 Bft)
08.02.2015 17:56 3,7 C 1,7 C 81 % 1031,5 hPa 0,0 l/m 0 min 0 min 0 W/m 6,3 km/h (2 Bft)
08.02.2015 17:58 3,6 C 1,1 C 81 % 1031,4 hPa 0,0 l/m 0 min 0 min 0 W/m 6,3 km/h (2 Bft)
08.02.2015 18:00 3,6 C 1,1 C 81 % 1031,5 hPa 0,0 l/m 0 min 0 min 0 W/m 4,2 km/h (1 Bft)
08.02.2015 18:03 3,6 C 1,1 C 81 % 1031,5 hPa 0,0 l/m 0 min 0 min 0 W/m 10,5 km/h (2 Bft)
08.02.2015 18:08 3,5 C 1,1 C 81 % 1031,5 hPa 0,0 l/m 0 min 0 min 0 W/m 10,5 km/h (2 Bft)
08.02.2015 18:10 3,5 C 1,1 C 81 % 1031,5 hPa 0,0 l/m 0 min 0 min 0 W/m 6,3 km/h (2 Bft)
08.02.2015 18:12 3,4 C 1,1 C 82 % 1031,6 hPa 0,0 l/m 0 min 0 min 0 W/m 6,3 km/h (2 Bft)
08.02.2015 18:14 3,4 C 0,6 C 82 % 1031,7 hPa 0,0 l/m 0 min 0 min 0 W/m 6,3 km/h (2 Bft)
08.02.2015 18:16 3,4 C 0,6 C 82 % 1031,7 hPa 0,0 l/m 0 min 0 min 0 W/m 8,4 km/h (2 Bft)
08.02.2015 18:18 3,4 C 0,6 C 82 % 1031,7 hPa 0,0 l/m 0 min 0 min 0 W/m 4,2 km/h (1 Bft)
08.02.2015 18:20 3,4 C 0,6 C 82 % 1031,7 hPa 0,0 l/m 0 min 0 min 0 W/m 6,3 km/h (2 Bft)
08.02.2015 18:22 3,3 C 0,6 C 82 % 1031,7 hPa 0,0 l/m 0 min 0 min 0 W/m 6,3 km/h (2 Bft)
08.02.2015 18:24 3,3 C 0,6 C 82 % 1031,7 hPa 0,0 l/m 0 min 0 min 0 W/m 6,3 km/h (2 Bft)
08.02.2015 18:26 3,3 C 0,0 C 82 % 1031,7 hPa 0,0 l/m 0 min 0 min 0 W/m 6,3 km/h (2 Bft)
08.02.2015 18:28 3,3 C 0,6 C 82 % 1031,7 hPa 0,0 l/m 0 min 0 min 0 W/m 4,2 km/h (1 Bft)
08.02.2015 18:30 3,2 C 0,0 C 82 % 1031,7 hPa 0,0 l/m 0 min 0 min 0 W/m 6,3 km/h (2 Bft)
08.02.2015 18:32 3,2 C 0,0 C 82 % 1031,7 hPa 0,0 l/m 0 min 0 min 0 W/m 10,5 km/h (2 Bft)
08.02.2015 18:34 3,2 C 0,6 C 82 % 1031,6 hPa 0,0 l/m 0 min 0 min 0 W/m 8,4 km/h (2 Bft)
08.02.2015 18:36 3,1 C 0,6 C 82 % 1031,6 hPa 0,0 l/m 0 min 0 min 0 W/m 6,3 km/h (2 Bft)
08.02.2015 18:38 3,1 C 0,0 C 82 % 1031,7 hPa 0,0 l/m 0 min 0 min 0 W/m 8,4 km/h (2 Bft)
08.02.2015 18:40 3,1 C 0,6 C 82 % 1031,6 hPa 0,0 l/m 0 min 0 min 0 W/m 8,4 km/h (2 Bft)
08.02.2015 18:42 3,0 C 0,6 C 82 % 1031,6 hPa 0,0 l/m 0 min 0 min 0 W/m 6,3 km/h (2 Bft)
08.02.2015 18:44 2,9 C 0,6 C 82 % 1031,5 hPa 0,0 l/m 0 min 0 min 0 W/m 6,3 km/h (2 Bft)
08.02.2015 18:46 2,9 C 0,0 C 83 % 1031,5 hPa 0,0 l/m 0 min 0 min 0 W/m 6,3 km/h (2 Bft)
08.02.2015 18:48 2,9 C 0,0 C 83 % 1031,5 hPa 0,0 l/m 0 min 0 min 0 W/m 8,4 km/h (2 Bft)
08.02.2015 18:50 2,8 C 0,0 C 83 % 1031,5 hPa 0,0 l/m 0 min 0 min 0 W/m 8,4 km/h (2 Bft)
08.02.2015 18:52 2,8 C 0,0 C 83 % 1031,5 hPa 0,0 l/m 0 min 0 min 0 W/m 6,3 km/h (2 Bft)
08.02.2015 18:54 2,8 C 0,0 C 83 % 1031,5 hPa 0,0 l/m 0 min 0 min 0 W/m 4,2 km/h (1 Bft)
08.02.2015 18:56 2,8 C 0,0 C 83 % 1031,7 hPa 0,0 l/m 0 min 0 min 0 W/m 2,1 km/h (1 Bft)
08.02.2015 18:58 2,7 C 0,0 C 83 % 1031,7 hPa 0,0 l/m 0 min 0 min 0 W/m 6,3 km/h (2 Bft)
08.02.2015 19:00 2,7 C 0,0 C 83 % 1031,7 hPa 0,0 l/m 0 min 0 min 0 W/m 8,4 km/h (2 Bft)
08.02.2015 19:02 2,7 C 0,0 C 83 % 1031,7 hPa 0,0 l/m 0 min 0 min 0 W/m 6,3 km/h (2 Bft)
08.02.2015 19:04 2,7 C 0,0 C 83 % 1031,7 hPa 0,0 l/m 0 min 0 min 0 W/m 6,3 km/h (2 Bft)
08.02.2015 19:06 2,6 C 0,0 C 83 % 1031,7 hPa 0,0 l/m 0 min 0 min 0 W/m 8,4 km/h (2 Bft)
08.02.2015 19:08 2,6 C 0,6 C 83 % 1031,6 hPa 0,0 l/m 0 min 0 min 0 W/m 4,2 km/h (1 Bft)
08.02.2015 19:10 2,6 C 0,6 C 83 % 1031,6 hPa 0,0 l/m 0 min 0 min 0 W/m 6,3 km/h (2 Bft)
08.02.2015 19:12 2,6 C 0,6 C 83 % 1031,7 hPa 0,0 l/m 0 min 0 min 0 W/m 6,3 km/h (2 Bft)
08.02.2015 19:14 2,5 C 0,6 C 84 % 1031,7 hPa 0,0 l/m 0 min 0 min 0 W/m 6,3 km/h (2 Bft)
08.02.2015 19:16 2,5 C 0,6 C 84 % 1031,8 hPa 0,0 l/m 0 min 0 min 0 W/m 8,4 km/h (2 Bft)
08.02.2015 19:18 2,5 C 0,6 C 84 % 1031,8 hPa 0,0 l/m 0 min 0 min 0 W/m 8,4 km/h (2 Bft)
08.02.2015 19:20 2,5 C 0,6 C 84 % 1031,8 hPa 0,0 l/m 0 min 0 min 0 W/m 8,4 km/h (2 Bft)
08.02.2015 19:22 2,4 C 0,6 C 84 % 1031,7 hPa 0,0 l/m 0 min 0 min 0 W/m 8,4 km/h (2 Bft)
08.02.2015 19:24 2,4 C 0,6 C 84 % 1031,8 hPa 0,0 l/m 0 min 0 min 0 W/m 8,4 km/h (2 Bft)
08.02.2015 19:26 2,4 C 0,6 C 84 % 1031,8 hPa 0,0 l/m 0 min 0 min 0 W/m 6,3 km/h (2 Bft)
08.02.2015 19:28 2,4 C 0,6 C 84 % 1031,8 hPa 0,0 l/m 0 min 0 min 0 W/m 6,3 km/h (2 Bft)
08.02.2015 19:30 2,4 C 0,6 C 85 % 1031,8 hPa 0,0 l/m 0 min 0 min 0 W/m 8,4 km/h (2 Bft)
08.02.2015 19:32 2,4 C 0,6 C 85 % 1031,8 hPa 0,0 l/m 0 min 0 min 0 W/m 8,4 km/h (2 Bft)
08.02.2015 19:34 2,4 C 0,6 C 85 % 1031,8 hPa 0,0 l/m 0 min 0 min 0 W/m 6,3 km/h (2 Bft)
08.02.2015 19:36 2,4 C 0,6 C 85 % 1031,8 hPa 0,0 l/m 0 min 0 min 0 W/m 6,3 km/h (2 Bft)
08.02.2015 19:38 2,4 C 0,6 C 85 % 1031,8 hPa 0,0 l/m 0 min 0 min 0 W/m 6,3 km/h (2 Bft)
08.02.2015 19:40 2,4 C 0,6 C 85 % 1031,8 hPa 0,0 l/m 0 min 0 min 0 W/m 6,3 km/h (2 Bft)
08.02.2015 19:42 2,4 C 0,6 C 85 % 1031,8 hPa 0,0 l/m 0 min 0 min 0 W/m 4,2 km/h (1 Bft)
08.02.2015 19:44 2,4 C 0,6 C 85 % 1031,8 hPa 0,0 l/m 0 min 0 min 0 W/m 6,3 km/h (2 Bft)
08.02.2015 19:46 2,4 C 0,6 C 85 % 1031,8 hPa 0,0 l/m 0 min 0 min 0 W/m 8,4 km/h (2 Bft)
08.02.2015 19:48 2,4 C 0,6 C 85 % 1031,8 hPa 0,0 l/m 0 min 0 min 0 W/m 4,2 km/h (1 Bft)
08.02.2015 19:50 2,4 C 0,0 C 85 % 1031,8 hPa 0,0 l/m 0 min 0 min 0 W/m 4,2 km/h (1 Bft)
08.02.2015 19:52 2,4 C 0,0 C 85 % 1031,8 hPa 0,0 l/m 0 min 0 min 0 W/m 4,2 km/h (1 Bft)
08.02.2015 19:54 2,4 C 0,0 C 85 % 1031,8 hPa 0,0 l/m 0 min 0 min 0 W/m 4,2 km/h (1 Bft)
08.02.2015 19:56 2,4 C 0,0 C 85 % 1031,8 hPa 0,0 l/m 0 min 0 min 0 W/m 4,2 km/h (1 Bft)
08.02.2015 19:58 2,4 C 0,0 C 86 % 1031,8 hPa 0,0 l/m 0 min 0 min 0 W/m 2,1 km/h (1 Bft)
08.02.2015 20:00 2,3 C -0,6 C 86 % 1031,8 hPa 0,0 l/m 0 min 0 min 0 W/m 2,1 km/h (1 Bft)
08.02.2015 20:02 2,3 C -0,6 C 85 % 1031,9 hPa 0,0 l/m 0 min 0 min 0 W/m 2,1 km/h (1 Bft)
08.02.2015 20:04 2,3 C -0,6 C 85 % 1031,9 hPa 0,0 l/m 0 min 0 min 0 W/m 2,1 km/h (1 Bft)
08.02.2015 20:06 2,3 C -0,6 C 85 % 1031,9 hPa 0,0 l/m 0 min 0 min 0 W/m 4,2 km/h (1 Bft)
08.02.2015 20:08 2,3 C -0,6 C 85 % 1031,9 hPa 0,0 l/m 0 min 0 min 0 W/m 4,2 km/h (1 Bft)
08.02.2015 20:10 2,3 C -0,6 C 85 % 1031,8 hPa 0,0 l/m 0 min 0 min 0 W/m 4,2 km/h (1 Bft)
08.02.2015 20:12 2,2 C -0,6 C 85 % 1031,9 hPa 0,0 l/m 0 min 0 min 0 W/m 4,2 km/h (1 Bft)
08.02.2015 20:14 2,2 C -1,1 C 85 % 1032,0 hPa 0,0 l/m 0 min 0 min 0 W/m 6,3 km/h (2 Bft)
08.02.2015 20:16 2,2 C -1,1 C 85 % 1032,0 hPa 0,0 l/m 0 min 0 min 0 W/m 4,2 km/h (1 Bft)
08.02.2015 20:18 2,1 C -1,1 C 85 % 1032,0 hPa 0,0 l/m 0 min 0 min 0 W/m 4,2 km/h (1 Bft)
08.02.2015 20:20 2,1 C -1,1 C 85 % 1032,0 hPa 0,0 l/m 0 min 0 min 0 W/m 4,2 km/h (1 Bft)
08.02.2015 20:22 2,1 C -1,1 C 85 % 1032,0 hPa 0,0 l/m 0 min 0 min 0 W/m 4,2 km/h (1 Bft)
08.02.2015 20:24 2,1 C -1,1 C 85 % 1032,0 hPa 0,0 l/m 0 min 0 min 0 W/m 6,3 km/h (2 Bft)
08.02.2015 20:26 2,0 C -1,1 C 85 % 1032,0 hPa 0,0 l/m 0 min 0 min 0 W/m 4,2 km/h (1 Bft)
08.02.2015 20:28 1,9 C -1,1 C 85 % 1032,0 hPa 0,0 l/m 0 min 0 min 0 W/m 4,2 km/h (1 Bft)
08.02.2015 20:30 1,9 C -1,1 C 85 % 1032,0 hPa 0,0 l/m 0 min 0 min 0 W/m 6,3 km/h (2 Bft)
08.02.2015 20:32 1,9 C -1,1 C 85 % 1031,9 hPa 0,0 l/m 0 min 0 min 0 W/m 8,4 km/h (2 Bft)
08.02.2015 20:34 1,8 C -1,1 C 85 % 1032,0 hPa 0,0 l/m 0 min 0 min 0 W/m 6,3 km/h (2 Bft)
08.02.2015 20:36 1,8 C -1,1 C 86 % 1032,1 hPa 0,0 l/m 0 min 0 min 0 W/m 6,3 km/h (2 Bft)
08.02.2015 20:38 1,8 C -1,1 C 86 % 1032,1 hPa 0,0 l/m 0 min 0 min 0 W/m 4,2 km/h (1 Bft)
08.02.2015 20:40 1,7 C -1,1 C 86 % 1032,1 hPa 0,0 l/m 0 min 0 min 0 W/m 6,3 km/h (2 Bft)
08.02.2015 20:42 1,7 C -1,1 C 86 % 1032,2 hPa 0,0 l/m 0 min 0 min 0 W/m 6,3 km/h (2 Bft)
08.02.2015 20:44 1,7 C -1,1 C 86 % 1032,2 hPa 0,0 l/m 0 min 0 min 0 W/m 6,3 km/h (2 Bft)
08.02.2015 20:46 1,6 C -1,1 C 86 % 1032,0 hPa 0,0 l/m 0 min 0 min 0 W/m 6,3 km/h (2 Bft)
08.02.2015 20:48 1,6 C -1,1 C 86 % 1032,0 hPa 0,0 l/m 0 min 0 min 0 W/m 4,2 km/h (1 Bft)
08.02.2015 20:50 1,6 C -1,1 C 86 % 1032,1 hPa 0,0 l/m 0 min 0 min 0 W/m 8,4 km/h (2 Bft)
08.02.2015 20:52 1,6 C -0,6 C 86 % 1032,0 hPa 0,0 l/m 0 min 0 min 0 W/m 6,3 km/h (2 Bft)
08.02.2015 20:54 1,5 C -0,6 C 86 % 1031,9 hPa 0,0 l/m 0 min 0 min 0 W/m 8,4 km/h (2 Bft)
08.02.2015 20:56 1,5 C -0,6 C 87 % 1031,9 hPa 0,0 l/m 0 min 0 min 0 W/m 8,4 km/h (2 Bft)
08.02.2015 20:58 1,5 C 0,0 C 87 % 1031,9 hPa 0,0 l/m 0 min 0 min 0 W/m 8,4 km/h (2 Bft)
08.02.2015 21:00 1,5 C 0,0 C 87 % 1032,1 hPa 0,0 l/m 0 min 0 min 0 W/m 8,4 km/h (2 Bft)
08.02.2015 21:02 1,5 C 0,0 C 87 % 1032,1 hPa 0,0 l/m 0 min 0 min 0 W/m 8,4 km/h (2 Bft)
08.02.2015 21:04 1,5 C 0,0 C 88 % 1032,1 hPa 0,0 l/m 0 min 0 min 0 W/m 10,5 km/h (2 Bft)
08.02.2015 21:06 1,5 C 0,0 C 88 % 1032,0 hPa 0,0 l/m 0 min 0 min 0 W/m 6,3 km/h (2 Bft)
08.02.2015 21:08 1,5 C 0,0 C 88 % 1032,0 hPa 0,0 l/m 0 min 0 min 0 W/m 6,3 km/h (2 Bft)
08.02.2015 21:10 1,5 C 0,0 C 88 % 1032,0 hPa 0,0 l/m 0 min 0 min 0 W/m 8,4 km/h (2 Bft)
08.02.2015 21:12 1,6 C 0,0 C 88 % 1031,9 hPa 0,0 l/m 0 min 0 min 0 W/m 6,3 km/h (2 Bft)
08.02.2015 21:14 1,6 C 0,0 C 88 % 1032,0 hPa 0,0 l/m 0 min 0 min 0 W/m 6,3 km/h (2 Bft)
08.02.2015 21:16 1,6 C 0,0 C 88 % 1031,9 hPa 0,0 l/m 0 min 0 min 0 W/m 8,4 km/h (2 Bft)
08.02.2015 21:18 1,6 C 0,6 C 89 % 1031,9 hPa 0,0 l/m 0 min 0 min 0 W/m 10,5 km/h (2 Bft)
08.02.2015 21:20 1,6 C 0,6 C 89 % 1032,0 hPa 0,0 l/m 0 min 0 min 0 W/m 6,3 km/h (2 Bft)
08.02.2015 21:22 1,7 C 0,6 C 89 % 1031,9 hPa 0,0 l/m 0 min 0 min 0 W/m 6,3 km/h (2 Bft)
08.02.2015 21:24 1,7 C 0,6 C 89 % 1031,8 hPa 0,0 l/m 0 min 0 min 0 W/m 8,4 km/h (2 Bft)
08.02.2015 21:26 1,7 C 0,6 C 89 % 1031,9 hPa 0,0 l/m 0 min 0 min 0 W/m 6,3 km/h (2 Bft)
08.02.2015 21:28 1,7 C 0,6 C 89 % 1031,9 hPa 0,0 l/m 0 min 0 min 0 W/m 8,4 km/h (2 Bft)
08.02.2015 21:30 1,7 C 0,6 C 89 % 1031,8 hPa 0,0 l/m 0 min 0 min 0 W/m 6,3 km/h (2 Bft)
08.02.2015 21:32 1,8 C 0,6 C 89 % 1031,9 hPa 0,0 l/m 0 min 0 min 0 W/m 8,4 km/h (2 Bft)
08.02.2015 21:34 1,8 C 0,6 C 90 % 1031,9 hPa 0,0 l/m 0 min 0 min 0 W/m 6,3 km/h (2 Bft)
08.02.2015 21:36 1,8 C 0,6 C 90 % 1032,0 hPa 0,0 l/m 0 min 0 min 0 W/m 6,3 km/h (2 Bft)
08.02.2015 21:38 1,8 C 0,6 C 90 % 1032,0 hPa 0,0 l/m 0 min 0 min 0 W/m 10,5 km/h (2 Bft)
08.02.2015 21:40 1,8 C 0,6 C 90 % 1032,0 hPa 0,0 l/m 0 min 0 min 0 W/m 6,3 km/h (2 Bft)
08.02.2015 21:42 1,8 C 0,6 C 90 % 1032,0 hPa 0,0 l/m 0 min 0 min 0 W/m 6,3 km/h (2 Bft)
08.02.2015 21:44 1,8 C 0,6 C 90 % 1032,1 hPa 0,0 l/m 0 min 0 min 0 W/m 8,4 km/h (2 Bft)
08.02.2015 21:46 1,8 C 0,6 C 90 % 1032,1 hPa 0,0 l/m 0 min 0 min 0 W/m 6,3 km/h (2 Bft)
08.02.2015 21:48 1,8 C 0,6 C 90 % 1032,1 hPa 0,0 l/m 0 min 0 min 0 W/m 4,2 km/h (1 Bft)
08.02.2015 21:50 1,8 C 0,6 C 90 % 1032,1 hPa 0,0 l/m 0 min 0 min 0 W/m 4,2 km/h (1 Bft)
08.02.2015 21:52 1,9 C 0,6 C 90 % 1032,0 hPa 0,0 l/m 0 min 0 min 0 W/m 8,4 km/h (2 Bft)
08.02.2015 21:54 1,9 C 0,6 C 90 % 1032,1 hPa 0,0 l/m 0 min 0 min 0 W/m 6,3 km/h (2 Bft)
08.02.2015 21:56 1,9 C 0,6 C 90 % 1031,9 hPa 0,0 l/m 0 min 0 min 0 W/m 4,2 km/h (1 Bft)
08.02.2015 21:58 1,9 C 0,6 C 90 % 1031,9 hPa 0,0 l/m 0 min 0 min 0 W/m 4,2 km/h (1 Bft)
08.02.2015 22:00 1,9 C 0,6 C 90 % 1031,9 hPa 0,0 l/m 0 min 0 min 0 W/m 6,3 km/h (2 Bft)
08.02.2015 22:02 1,9 C 0,6 C 90 % 1031,8 hPa 0,0 l/m 0 min 0 min 0 W/m 8,4 km/h (2 Bft)
08.02.2015 22:04 1,9 C 0,6 C 90 % 1031,7 hPa 0,0 l/m 0 min 0 min 0 W/m 8,4 km/h (2 Bft)
08.02.2015 22:06 1,9 C 0,6 C 90 % 1031,7 hPa 0,0 l/m 0 min 0 min 0 W/m 8,4 km/h (2 Bft)
08.02.2015 22:08 1,9 C 1,1 C 90 % 1031,7 hPa 0,0 l/m 0 min 0 min 0 W/m 8,4 km/h (2 Bft)
08.02.2015 22:10 2,0 C 1,1 C 91 % 1031,6 hPa 0,0 l/m 0 min 0 min 0 W/m 8,4 km/h (2 Bft)
08.02.2015 22:12 2,0 C 1,1 C 91 % 1031,7 hPa 0,0 l/m 0 min 0 min 0 W/m 8,4 km/h (2 Bft)
08.02.2015 22:14 2,1 C 1,1 C 91 % 1031,7 hPa 0,0 l/m 0 min 0 min 0 W/m 8,4 km/h (2 Bft)
08.02.2015 22:16 2,1 C 1,1 C 91 % 1031,7 hPa 0,0 l/m 0 min 0 min 0 W/m 6,3 km/h (2 Bft)
08.02.2015 22:18 2,1 C 1,1 C 91 % 1031,7 hPa 0,0 l/m 0 min 0 min 0 W/m 8,4 km/h (2 Bft)
08.02.2015 22:20 2,1 C 1,1 C 91 % 1031,8 hPa 0,0 l/m 0 min 0 min 0 W/m 4,2 km/h (1 Bft)
08.02.2015 22:22 2,1 C 1,1 C 91 % 1031,7 hPa 0,0 l/m 0 min 0 min 0 W/m 6,3 km/h (2 Bft)
08.02.2015 22:24 2,2 C 1,1 C 91 % 1031,7 hPa 0,0 l/m 0 min 0 min 0 W/m 8,4 km/h (2 Bft)
08.02.2015 22:26 2,2 C 1,1 C 91 % 1031,7 hPa 0,0 l/m 0 min 0 min 0 W/m 6,3 km/h (2 Bft)
08.02.2015 22:28 2,2 C 1,1 C 91 % 1031,8 hPa 0,0 l/m 0 min 0 min 0 W/m 10,5 km/h (2 Bft)
08.02.2015 22:30 2,2 C 1,1 C 91 % 1031,8 hPa 0,0 l/m 0 min 0 min 0 W/m 6,3 km/h (2 Bft)
08.02.2015 22:32 2,2 C 1,1 C 91 % 1031,8 hPa 0,0 l/m 0 min 0 min 0 W/m 8,4 km/h (2 Bft)
08.02.2015 22:34 2,2 C 1,1 C 91 % 1031,8 hPa 0,0 l/m 0 min 0 min 0 W/m 12,6 km/h (3 Bft)
08.02.2015 22:36 2,3 C 1,1 C 91 % 1031,8 hPa 0,0 l/m 0 min 0 min 0 W/m 8,4 km/h (2 Bft)
08.02.2015 22:38 2,3 C 1,7 C 91 % 1031,8 hPa 0,0 l/m 0 min 0 min 0 W/m 14,6 km/h (3 Bft)
08.02.2015 22:40 2,3 C 1,7 C 91 % 1031,8 hPa 0,0 l/m 0 min 0 min 0 W/m 14,6 km/h (3 Bft)
08.02.2015 22:42 2,3 C 1,7 C 91 % 1031,8 hPa 0,0 l/m 0 min 0 min 0 W/m 10,5 km/h (2 Bft)
08.02.2015 22:44 2,4 C 1,7 C 91 % 1031,7 hPa 0,0 l/m 0 min 0 min 0 W/m 12,6 km/h (3 Bft)
08.02.2015 22:46 2,4 C 1,7 C 91 % 1031,7 hPa 0,0 l/m 0 min 0 min 0 W/m 12,6 km/h (3 Bft)
08.02.2015 22:48 2,4 C 1,7 C 91 % 1031,8 hPa 0,0 l/m 0 min 0 min 0 W/m 10,5 km/h (2 Bft)
08.02.2015 22:50 2,4 C 1,7 C 91 % 1031,7 hPa 0,0 l/m 0 min 0 min 0 W/m 12,6 km/h (3 Bft)
08.02.2015 22:52 2,5 C 1,7 C 91 % 1031,7 hPa 0,0 l/m 0 min 0 min 0 W/m 6,3 km/h (2 Bft)
08.02.2015 22:54 2,5 C 1,7 C 91 % 1031,8 hPa 0,0 l/m 0 min 0 min 0 W/m 6,3 km/h (2 Bft)
08.02.2015 22:56 2,5 C 1,7 C 91 % 1031,7 hPa 0,0 l/m 0 min 0 min 0 W/m 10,5 km/h (2 Bft)
08.02.2015 22:58 2,6 C 1,7 C 91 % 1031,7 hPa 0,0 l/m 0 min 0 min 0 W/m 12,6 km/h (3 Bft)
08.02.2015 23:00 2,6 C 1,7 C 91 % 1031,7 hPa 0,0 l/m 0 min 0 min 0 W/m 8,4 km/h (2 Bft)
08.02.2015 23:02 2,6 C 1,7 C 91 % 1031,6 hPa 0,0 l/m 0 min 0 min 0 W/m 8,4 km/h (2 Bft)
08.02.2015 23:04 2,6 C 1,7 C 91 % 1031,6 hPa 0,0 l/m 0 min 0 min 0 W/m 12,6 km/h (3 Bft)
08.02.2015 23:06 2,6 C 1,1 C 91 % 1031,6 hPa 0,0 l/m 0 min 0 min 0 W/m 10,5 km/h (2 Bft)
08.02.2015 23:08 2,6 C 1,1 C 91 % 1031,6 hPa 0,0 l/m 0 min 0 min 0 W/m 8,4 km/h (2 Bft)
08.02.2015 23:10 2,6 C 1,7 C 91 % 1031,5 hPa 0,0 l/m 0 min 0 min 0 W/m 12,6 km/h (3 Bft)
08.02.2015 23:12 2,6 C 1,1 C 91 % 1031,5 hPa 0,0 l/m 0 min 0 min 0 W/m 10,5 km/h (2 Bft)
08.02.2015 23:14 2,6 C 1,1 C 91 % 1031,5 hPa 0,0 l/m 0 min 0 min 0 W/m 10,5 km/h (2 Bft)
08.02.2015 23:16 2,6 C 1,1 C 91 % 1031,5 hPa 0,0 l/m 0 min 0 min 0 W/m 10,5 km/h (2 Bft)
08.02.2015 23:18 2,6 C 1,1 C 91 % 1031,5 hPa 0,0 l/m 0 min 0 min 0 W/m 10,5 km/h (2 Bft)
08.02.2015 23:20 2,6 C 1,1 C 91 % 1031,5 hPa 0,0 l/m 0 min 0 min 0 W/m 8,4 km/h (2 Bft)
08.02.2015 23:22 2,6 C 1,1 C 91 % 1031,5 hPa 0,0 l/m 0 min 0 min 0 W/m 6,3 km/h (2 Bft)
08.02.2015 23:24 2,6 C 1,1 C 91 % 1031,5 hPa 0,0 l/m 0 min 0 min 0 W/m 10,5 km/h (2 Bft)
08.02.2015 23:26 2,6 C 1,1 C 91 % 1031,5 hPa 0,0 l/m 0 min 0 min 0 W/m 10,5 km/h (2 Bft)
08.02.2015 23:28 2,6 C 1,1 C 91 % 1031,3 hPa 0,0 l/m 0 min 0 min 0 W/m 8,4 km/h (2 Bft)
08.02.2015 23:30 2,6 C 0,6 C 91 % 1031,3 hPa 0,0 l/m 0 min 0 min 0 W/m 12,6 km/h (3 Bft)
08.02.2015 23:32 2,5 C 0,6 C 91 % 1031,2 hPa 0,0 l/m 0 min 0 min 0 W/m 12,6 km/h (3 Bft)
08.02.2015 23:34 2,5 C 0,6 C 91 % 1031,3 hPa 0,0 l/m 0 min 0 min 0 W/m 10,5 km/h (2 Bft)
08.02.2015 23:36 2,5 C 0,6 C 91 % 1031,2 hPa 0,0 l/m 0 min 0 min 0 W/m 8,4 km/h (2 Bft)
08.02.2015 23:38 2,4 C 0,6 C 91 % 1031,3 hPa 0,0 l/m 0 min 0 min 0 W/m 6,3 km/h (2 Bft)
08.02.2015 23:40 2,4 C 0,6 C 91 % 1031,3 hPa 0,0 l/m 0 min 0 min 0 W/m 6,3 km/h (2 Bft)
08.02.2015 23:42 2,4 C 0,6 C 91 % 1031,4 hPa 0,0 l/m 0 min 0 min 0 W/m 6,3 km/h (2 Bft)
08.02.2015 23:44 2,4 C 0,6 C 91 % 1031,3 hPa 0,0 l/m 0 min 0 min 0 W/m 10,5 km/h (2 Bft)
08.02.2015 23:46 2,4 C 0,6 C 91 % 1031,3 hPa 0,0 l/m 0 min 0 min 0 W/m 12,6 km/h (3 Bft)
08.02.2015 23:48 2,4 C 0,6 C 90 % 1031,3 hPa 0,0 l/m 0 min 0 min 0 W/m 8,4 km/h (2 Bft)
08.02.2015 23:50 2,4 C 0,6 C 90 % 1031,3 hPa 0,0 l/m 0 min 0 min 0 W/m 12,6 km/h (3 Bft)
08.02.2015 23:52 2,4 C 1,1 C 91 % 1031,2 hPa 0,0 l/m 0 min 0 min 0 W/m 12,6 km/h (3 Bft)
08.02.2015 23:54 2,4 C 1,1 C 91 % 1031,2 hPa 0,0 l/m 0 min 0 min 0 W/m 14,6 km/h (3 Bft)
08.02.2015 23:56 2,4 C 1,1 C 91 % 1031,3 hPa 0,0 l/m 0 min 0 min 0 W/m 14,6 km/h (3 Bft)
08.02.2015 23:58 2,4 C 1,1 C 91 % 1031,2 hPa 0,0 l/m 0 min 0 min 0 W/m 12,6 km/h (3 Bft)
_ Min-Zeit 20:54 20:14 15:34 04:34 - - - - 18:56
Minimum _ 1,5 C -1,1 C 72 % 1026,4 hPa - - - - 2,1 km/h (1 Bft)
_ Max-Zeit 15:28 14:38 00:00 20:42 05:12 10:24 04:48 13:56 11:08
Maximum _ 5,4 C 3,9 C 97 % 1032,2 hPa 0,2 l/m 2 min 2 min 409 W/m 50,2 km/h
N-NO (7 Bft)
Durchschnitt _ 3,3 C 1,7 C 88 % 1029,7 hPa #0,8 l/m #4:16 h #1:58 h 132 W/m 18,4 km/h (3 Bft)
© 2015 W. Hausmann